<?xml version="1.0" encoding="utf-8"?>
<gpx xmlns:xsi="http://www.w3.org/2001/XMLSchema-instance" xmlns:xsd="http://www.w3.org/2001/XMLSchema" version="1.1" creator="Shapelink.com" xmlns="http://www.topografix.com/GPX/1/1" xmlns:gpxtpx="http://www.garmin.com/xmlschemas/TrackPointExtension/v1">
  <metadata>
    <name>Gåing 6.87 km, 2013-11-13</name>
    <desc></desc>
    <author><name>Alexander Engvall</name></author> 
    <time>2013-11-13T19:24:49Z</time>
  </metadata>
  <trk>
    <name>Gåing 6.87 km, 2013-11-13</name>
    <trkseg>
      <trkpt lat="59.4590004" lon="17.805022">
        <ele>18.4</ele>
        <time>2013-11-13T19:24:49Z</time>
      </trkpt>
      <trkpt lat="59.4589372" lon="17.8050651">
        <ele>19.2</ele>
        <time>2013-11-13T19:24:52Z</time>
      </trkpt>
      <trkpt lat="59.4588918" lon="17.8050787">
        <ele>19.8</ele>
        <time>2013-11-13T19:24:54Z</time>
      </trkpt>
      <trkpt lat="59.4587808" lon="17.8051087">
        <ele>21.4</ele>
        <time>2013-11-13T19:25:00Z</time>
      </trkpt>
      <trkpt lat="59.4585543" lon="17.8047631">
        <ele>25.8</ele>
        <time>2013-11-13T19:25:08Z</time>
      </trkpt>
      <trkpt lat="59.4583682" lon="17.804719">
        <ele>30.2</ele>
        <time>2013-11-13T19:25:16Z</time>
      </trkpt>
      <trkpt lat="59.4581721" lon="17.804646">
        <ele>35</ele>
        <time>2013-11-13T19:25:25Z</time>
      </trkpt>
      <trkpt lat="59.4581345" lon="17.8046165">
        <ele>36.6</ele>
        <time>2013-11-13T19:25:28Z</time>
      </trkpt>
      <trkpt lat="59.4581003" lon="17.8046149">
        <ele>38</ele>
        <time>2013-11-13T19:25:32Z</time>
      </trkpt>
      <trkpt lat="59.4580561" lon="17.8046028">
        <ele>38.8</ele>
        <time>2013-11-13T19:25:36Z</time>
      </trkpt>
      <trkpt lat="59.458032" lon="17.8045907">
        <ele>39.4</ele>
        <time>2013-11-13T19:25:39Z</time>
      </trkpt>
      <trkpt lat="59.4578833" lon="17.8045933">
        <ele>39.4</ele>
        <time>2013-11-13T19:25:51Z</time>
      </trkpt>
      <trkpt lat="59.4578671" lon="17.804606">
        <ele>39.4</ele>
        <time>2013-11-13T19:25:53Z</time>
      </trkpt>
      <trkpt lat="59.4578708" lon="17.8046735">
        <ele>39.2</ele>
        <time>2013-11-13T19:25:57Z</time>
      </trkpt>
      <trkpt lat="59.4578862" lon="17.8047371">
        <ele>39</ele>
        <time>2013-11-13T19:26:00Z</time>
      </trkpt>
      <trkpt lat="59.4578838" lon="17.8047873">
        <ele>38.6</ele>
        <time>2013-11-13T19:26:03Z</time>
      </trkpt>
      <trkpt lat="59.4578826" lon="17.8049186">
        <ele>38.2</ele>
        <time>2013-11-13T19:26:08Z</time>
      </trkpt>
      <trkpt lat="59.4578906" lon="17.8049723">
        <ele>37.8</ele>
        <time>2013-11-13T19:26:10Z</time>
      </trkpt>
      <trkpt lat="59.4578935" lon="17.8050938">
        <ele>37.4</ele>
        <time>2013-11-13T19:26:15Z</time>
      </trkpt>
      <trkpt lat="59.4579335" lon="17.8052424">
        <ele>36.6</ele>
        <time>2013-11-13T19:26:21Z</time>
      </trkpt>
      <trkpt lat="59.4579717" lon="17.8054461">
        <ele>35.6</ele>
        <time>2013-11-13T19:26:28Z</time>
      </trkpt>
      <trkpt lat="59.4579757" lon="17.8054783">
        <ele>35.6</ele>
        <time>2013-11-13T19:26:29Z</time>
      </trkpt>
      <trkpt lat="59.4580018" lon="17.8056457">
        <ele>34.6</ele>
        <time>2013-11-13T19:26:36Z</time>
      </trkpt>
      <trkpt lat="59.4580187" lon="17.8056473">
        <ele>33.8</ele>
        <time>2013-11-13T19:26:44Z</time>
      </trkpt>
      <trkpt lat="59.4580305" lon="17.8057621">
        <ele>29.8</ele>
        <time>2013-11-13T19:27:33Z</time>
      </trkpt>
      <trkpt lat="59.4580436" lon="17.8058679">
        <ele>29.6</ele>
        <time>2013-11-13T19:27:37Z</time>
      </trkpt>
      <trkpt lat="59.4580382" lon="17.8059481">
        <ele>29.4</ele>
        <time>2013-11-13T19:27:40Z</time>
      </trkpt>
      <trkpt lat="59.458005" lon="17.8059746">
        <ele>29.2</ele>
        <time>2013-11-13T19:27:42Z</time>
      </trkpt>
      <trkpt lat="59.4579429" lon="17.8059683">
        <ele>29</ele>
        <time>2013-11-13T19:27:46Z</time>
      </trkpt>
      <trkpt lat="59.4579087" lon="17.8059663">
        <ele>28.8</ele>
        <time>2013-11-13T19:27:48Z</time>
      </trkpt>
      <trkpt lat="59.4576968" lon="17.8059162">
        <ele>28.2</ele>
        <time>2013-11-13T19:27:59Z</time>
      </trkpt>
      <trkpt lat="59.4575352" lon="17.8058507">
        <ele>28</ele>
        <time>2013-11-13T19:28:08Z</time>
      </trkpt>
      <trkpt lat="59.4574038" lon="17.805787">
        <ele>27.6</ele>
        <time>2013-11-13T19:28:16Z</time>
      </trkpt>
      <trkpt lat="59.457246" lon="17.8056849">
        <ele>27.2</ele>
        <time>2013-11-13T19:28:25Z</time>
      </trkpt>
      <trkpt lat="59.4571094" lon="17.8056042">
        <ele>27</ele>
        <time>2013-11-13T19:28:33Z</time>
      </trkpt>
      <trkpt lat="59.4570154" lon="17.8055595">
        <ele>26.6</ele>
        <time>2013-11-13T19:28:39Z</time>
      </trkpt>
      <trkpt lat="59.4568558" lon="17.8055159">
        <ele>26.4</ele>
        <time>2013-11-13T19:28:47Z</time>
      </trkpt>
      <trkpt lat="59.4566763" lon="17.8054225">
        <ele>26.2</ele>
        <time>2013-11-13T19:28:56Z</time>
      </trkpt>
      <trkpt lat="59.4565365" lon="17.8053167">
        <ele>27</ele>
        <time>2013-11-13T19:29:04Z</time>
      </trkpt>
      <trkpt lat="59.4563917" lon="17.8051912">
        <ele>26.6</ele>
        <time>2013-11-13T19:29:13Z</time>
      </trkpt>
      <trkpt lat="59.4562616" lon="17.805147">
        <ele>26.8</ele>
        <time>2013-11-13T19:29:19Z</time>
      </trkpt>
      <trkpt lat="59.4562456" lon="17.8051291">
        <ele>27</ele>
        <time>2013-11-13T19:29:20Z</time>
      </trkpt>
      <trkpt lat="59.4562083" lon="17.8051145">
        <ele>27</ele>
        <time>2013-11-13T19:29:22Z</time>
      </trkpt>
      <trkpt lat="59.4561745" lon="17.8050928">
        <ele>27</ele>
        <time>2013-11-13T19:29:24Z</time>
      </trkpt>
      <trkpt lat="59.4560749" lon="17.8049987">
        <ele>27.6</ele>
        <time>2013-11-13T19:29:30Z</time>
      </trkpt>
      <trkpt lat="59.4560567" lon="17.8049881">
        <ele>27.4</ele>
        <time>2013-11-13T19:29:31Z</time>
      </trkpt>
      <trkpt lat="59.4559469" lon="17.8048562">
        <ele>27.2</ele>
        <time>2013-11-13T19:29:39Z</time>
      </trkpt>
      <trkpt lat="59.4558036" lon="17.8047344">
        <ele>27</ele>
        <time>2013-11-13T19:29:47Z</time>
      </trkpt>
      <trkpt lat="59.4556523" lon="17.8046517">
        <ele>27.6</ele>
        <time>2013-11-13T19:29:55Z</time>
      </trkpt>
      <trkpt lat="59.4555478" lon="17.804544">
        <ele>27.4</ele>
        <time>2013-11-13T19:30:02Z</time>
      </trkpt>
      <trkpt lat="59.4554252" lon="17.8044593">
        <ele>27</ele>
        <time>2013-11-13T19:30:10Z</time>
      </trkpt>
      <trkpt lat="59.4552775" lon="17.8043902">
        <ele>26.4</ele>
        <time>2013-11-13T19:30:19Z</time>
      </trkpt>
      <trkpt lat="59.4551379" lon="17.8043421">
        <ele>26</ele>
        <time>2013-11-13T19:30:27Z</time>
      </trkpt>
      <trkpt lat="59.4551161" lon="17.8042437">
        <ele>25.8</ele>
        <time>2013-11-13T19:30:31Z</time>
      </trkpt>
      <trkpt lat="59.4551094" lon="17.8042264">
        <ele>25.6</ele>
        <time>2013-11-13T19:30:32Z</time>
      </trkpt>
      <trkpt lat="59.455102" lon="17.8042123">
        <ele>25.6</ele>
        <time>2013-11-13T19:30:33Z</time>
      </trkpt>
      <trkpt lat="59.4550534" lon="17.8040754">
        <ele>24.6</ele>
        <time>2013-11-13T19:30:41Z</time>
      </trkpt>
      <trkpt lat="59.4550249" lon="17.8039559">
        <ele>23.8</ele>
        <time>2013-11-13T19:30:46Z</time>
      </trkpt>
      <trkpt lat="59.4550084" lon="17.8037541">
        <ele>22.8</ele>
        <time>2013-11-13T19:30:52Z</time>
      </trkpt>
      <trkpt lat="59.4550008" lon="17.8037383">
        <ele>22.6</ele>
        <time>2013-11-13T19:30:53Z</time>
      </trkpt>
      <trkpt lat="59.4549361" lon="17.803699">
        <ele>22.4</ele>
        <time>2013-11-13T19:30:56Z</time>
      </trkpt>
      <trkpt lat="59.4549255" lon="17.8036738">
        <ele>22.4</ele>
        <time>2013-11-13T19:30:57Z</time>
      </trkpt>
      <trkpt lat="59.4548369" lon="17.8035407">
        <ele>22</ele>
        <time>2013-11-13T19:31:02Z</time>
      </trkpt>
      <trkpt lat="59.4548324" lon="17.8033677">
        <ele>21.6</ele>
        <time>2013-11-13T19:31:06Z</time>
      </trkpt>
      <trkpt lat="59.4548012" lon="17.8031441">
        <ele>21</ele>
        <time>2013-11-13T19:31:12Z</time>
      </trkpt>
      <trkpt lat="59.4547132" lon="17.8028333">
        <ele>19.8</ele>
        <time>2013-11-13T19:31:22Z</time>
      </trkpt>
      <trkpt lat="59.4546228" lon="17.8027425">
        <ele>19.2</ele>
        <time>2013-11-13T19:31:28Z</time>
      </trkpt>
      <trkpt lat="59.4545159" lon="17.8027888">
        <ele>19</ele>
        <time>2013-11-13T19:31:34Z</time>
      </trkpt>
      <trkpt lat="59.4544493" lon="17.8028572">
        <ele>18.8</ele>
        <time>2013-11-13T19:31:38Z</time>
      </trkpt>
      <trkpt lat="59.4544341" lon="17.8028779">
        <ele>18.6</ele>
        <time>2013-11-13T19:31:39Z</time>
      </trkpt>
      <trkpt lat="59.4543833" lon="17.802983">
        <ele>18.6</ele>
        <time>2013-11-13T19:31:44Z</time>
      </trkpt>
      <trkpt lat="59.4543734" lon="17.8030252">
        <ele>18.6</ele>
        <time>2013-11-13T19:31:46Z</time>
      </trkpt>
      <trkpt lat="59.4542802" lon="17.8032187">
        <ele>18.6</ele>
        <time>2013-11-13T19:31:53Z</time>
      </trkpt>
      <trkpt lat="59.4542116" lon="17.8033617">
        <ele>18.6</ele>
        <time>2013-11-13T19:31:59Z</time>
      </trkpt>
      <trkpt lat="59.4541355" lon="17.803497">
        <ele>18.8</ele>
        <time>2013-11-13T19:32:05Z</time>
      </trkpt>
      <trkpt lat="59.4540599" lon="17.803579">
        <ele>19.2</ele>
        <time>2013-11-13T19:32:10Z</time>
      </trkpt>
      <trkpt lat="59.4539236" lon="17.8036208">
        <ele>19.8</ele>
        <time>2013-11-13T19:32:17Z</time>
      </trkpt>
      <trkpt lat="59.4538164" lon="17.8036399">
        <ele>19.8</ele>
        <time>2013-11-13T19:32:22Z</time>
      </trkpt>
      <trkpt lat="59.4537934" lon="17.803644">
        <ele>19.8</ele>
        <time>2013-11-13T19:32:24Z</time>
      </trkpt>
      <trkpt lat="59.4537434" lon="17.8036489">
        <ele>20</ele>
        <time>2013-11-13T19:32:26Z</time>
      </trkpt>
      <trkpt lat="59.4536431" lon="17.8036662">
        <ele>20</ele>
        <time>2013-11-13T19:32:32Z</time>
      </trkpt>
      <trkpt lat="59.4535289" lon="17.8036953">
        <ele>20.4</ele>
        <time>2013-11-13T19:32:38Z</time>
      </trkpt>
      <trkpt lat="59.4533761" lon="17.803708">
        <ele>20.8</ele>
        <time>2013-11-13T19:32:45Z</time>
      </trkpt>
      <trkpt lat="59.4532803" lon="17.8037036">
        <ele>21</ele>
        <time>2013-11-13T19:32:50Z</time>
      </trkpt>
      <trkpt lat="59.4532651" lon="17.8037062">
        <ele>21</ele>
        <time>2013-11-13T19:32:51Z</time>
      </trkpt>
      <trkpt lat="59.4532139" lon="17.8037036">
        <ele>21</ele>
        <time>2013-11-13T19:32:54Z</time>
      </trkpt>
      <trkpt lat="59.4531432" lon="17.8037063">
        <ele>21.4</ele>
        <time>2013-11-13T19:32:58Z</time>
      </trkpt>
      <trkpt lat="59.4530653" lon="17.8037274">
        <ele>21.6</ele>
        <time>2013-11-13T19:33:03Z</time>
      </trkpt>
      <trkpt lat="59.4529677" lon="17.8037992">
        <ele>22</ele>
        <time>2013-11-13T19:33:09Z</time>
      </trkpt>
      <trkpt lat="59.4529344" lon="17.8038224">
        <ele>22.4</ele>
        <time>2013-11-13T19:33:12Z</time>
      </trkpt>
      <trkpt lat="59.4529205" lon="17.8038258">
        <ele>22.4</ele>
        <time>2013-11-13T19:33:13Z</time>
      </trkpt>
      <trkpt lat="59.452899" lon="17.8038347">
        <ele>22.6</ele>
        <time>2013-11-13T19:33:14Z</time>
      </trkpt>
      <trkpt lat="59.4528187" lon="17.8038803">
        <ele>23</ele>
        <time>2013-11-13T19:33:19Z</time>
      </trkpt>
      <trkpt lat="59.4527836" lon="17.8039197">
        <ele>23</ele>
        <time>2013-11-13T19:33:22Z</time>
      </trkpt>
      <trkpt lat="59.4527756" lon="17.8039359">
        <ele>23</ele>
        <time>2013-11-13T19:33:23Z</time>
      </trkpt>
      <trkpt lat="59.4527531" lon="17.8039911">
        <ele>23</ele>
        <time>2013-11-13T19:33:26Z</time>
      </trkpt>
      <trkpt lat="59.4527208" lon="17.8040704">
        <ele>22.8</ele>
        <time>2013-11-13T19:33:30Z</time>
      </trkpt>
      <trkpt lat="59.4526806" lon="17.8041772">
        <ele>22.6</ele>
        <time>2013-11-13T19:33:34Z</time>
      </trkpt>
      <trkpt lat="59.452669" lon="17.8041943">
        <ele>22.6</ele>
        <time>2013-11-13T19:33:35Z</time>
      </trkpt>
      <trkpt lat="59.4525788" lon="17.8042906">
        <ele>22.2</ele>
        <time>2013-11-13T19:33:41Z</time>
      </trkpt>
      <trkpt lat="59.452545" lon="17.8043082">
        <ele>22</ele>
        <time>2013-11-13T19:33:43Z</time>
      </trkpt>
      <trkpt lat="59.4525053" lon="17.8043292">
        <ele>21.8</ele>
        <time>2013-11-13T19:33:47Z</time>
      </trkpt>
      <trkpt lat="59.4523745" lon="17.8044425">
        <ele>24.6</ele>
        <time>2013-11-13T19:34:16Z</time>
      </trkpt>
      <trkpt lat="59.4523605" lon="17.8044433">
        <ele>24.8</ele>
        <time>2013-11-13T19:34:17Z</time>
      </trkpt>
      <trkpt lat="59.4523286" lon="17.8044327">
        <ele>25</ele>
        <time>2013-11-13T19:34:19Z</time>
      </trkpt>
      <trkpt lat="59.4522684" lon="17.804406">
        <ele>25.2</ele>
        <time>2013-11-13T19:34:22Z</time>
      </trkpt>
      <trkpt lat="59.4522498" lon="17.804402">
        <ele>25.4</ele>
        <time>2013-11-13T19:34:23Z</time>
      </trkpt>
      <trkpt lat="59.4522216" lon="17.8043756">
        <ele>25.4</ele>
        <time>2013-11-13T19:34:25Z</time>
      </trkpt>
      <trkpt lat="59.452169" lon="17.8043523">
        <ele>25.8</ele>
        <time>2013-11-13T19:34:28Z</time>
      </trkpt>
      <trkpt lat="59.4521588" lon="17.804339">
        <ele>26</ele>
        <time>2013-11-13T19:34:29Z</time>
      </trkpt>
      <trkpt lat="59.4521102" lon="17.8043249">
        <ele>26</ele>
        <time>2013-11-13T19:34:32Z</time>
      </trkpt>
      <trkpt lat="59.4520381" lon="17.8042931">
        <ele>26</ele>
        <time>2013-11-13T19:34:37Z</time>
      </trkpt>
      <trkpt lat="59.4519278" lon="17.8042495">
        <ele>26</ele>
        <time>2013-11-13T19:34:44Z</time>
      </trkpt>
      <trkpt lat="59.4519065" lon="17.8042563">
        <ele>26</ele>
        <time>2013-11-13T19:34:45Z</time>
      </trkpt>
      <trkpt lat="59.4518211" lon="17.804245">
        <ele>26</ele>
        <time>2013-11-13T19:34:50Z</time>
      </trkpt>
      <trkpt lat="59.4517778" lon="17.8042466">
        <ele>26.2</ele>
        <time>2013-11-13T19:34:52Z</time>
      </trkpt>
      <trkpt lat="59.4517321" lon="17.8042184">
        <ele>26.2</ele>
        <time>2013-11-13T19:34:54Z</time>
      </trkpt>
      <trkpt lat="59.451697" lon="17.8042128">
        <ele>26</ele>
        <time>2013-11-13T19:34:56Z</time>
      </trkpt>
      <trkpt lat="59.4516279" lon="17.8041879">
        <ele>26</ele>
        <time>2013-11-13T19:35:00Z</time>
      </trkpt>
      <trkpt lat="59.4515318" lon="17.8040994">
        <ele>25.8</ele>
        <time>2013-11-13T19:35:06Z</time>
      </trkpt>
      <trkpt lat="59.4514402" lon="17.8039913">
        <ele>25.6</ele>
        <time>2013-11-13T19:35:12Z</time>
      </trkpt>
      <trkpt lat="59.4513338" lon="17.8038678">
        <ele>25.4</ele>
        <time>2013-11-13T19:35:18Z</time>
      </trkpt>
      <trkpt lat="59.4512755" lon="17.8037637">
        <ele>25.2</ele>
        <time>2013-11-13T19:35:23Z</time>
      </trkpt>
      <trkpt lat="59.4512345" lon="17.8036986">
        <ele>25.2</ele>
        <time>2013-11-13T19:35:26Z</time>
      </trkpt>
      <trkpt lat="59.451205" lon="17.8036649">
        <ele>25</ele>
        <time>2013-11-13T19:35:28Z</time>
      </trkpt>
      <trkpt lat="59.451142" lon="17.8035395">
        <ele>24.6</ele>
        <time>2013-11-13T19:35:33Z</time>
      </trkpt>
      <trkpt lat="59.4510951" lon="17.8034749">
        <ele>24.4</ele>
        <time>2013-11-13T19:35:36Z</time>
      </trkpt>
      <trkpt lat="59.4510826" lon="17.8034509">
        <ele>24.4</ele>
        <time>2013-11-13T19:35:37Z</time>
      </trkpt>
      <trkpt lat="59.4510565" lon="17.8033929">
        <ele>24.2</ele>
        <time>2013-11-13T19:35:39Z</time>
      </trkpt>
      <trkpt lat="59.4510338" lon="17.8033659">
        <ele>24.2</ele>
        <time>2013-11-13T19:35:40Z</time>
      </trkpt>
      <trkpt lat="59.4509722" lon="17.8032492">
        <ele>24</ele>
        <time>2013-11-13T19:35:44Z</time>
      </trkpt>
      <trkpt lat="59.4508844" lon="17.8031023">
        <ele>23.8</ele>
        <time>2013-11-13T19:35:51Z</time>
      </trkpt>
      <trkpt lat="59.4507858" lon="17.8028752">
        <ele>23.4</ele>
        <time>2013-11-13T19:36:01Z</time>
      </trkpt>
      <trkpt lat="59.4507539" lon="17.8028177">
        <ele>23.4</ele>
        <time>2013-11-13T19:36:04Z</time>
      </trkpt>
      <trkpt lat="59.450701" lon="17.8027932">
        <ele>23.2</ele>
        <time>2013-11-13T19:36:07Z</time>
      </trkpt>
      <trkpt lat="59.4505842" lon="17.8028043">
        <ele>23.2</ele>
        <time>2013-11-13T19:36:14Z</time>
      </trkpt>
      <trkpt lat="59.4505626" lon="17.8029496">
        <ele>23</ele>
        <time>2013-11-13T19:36:21Z</time>
      </trkpt>
      <trkpt lat="59.450483" lon="17.8031181">
        <ele>22.8</ele>
        <time>2013-11-13T19:36:30Z</time>
      </trkpt>
      <trkpt lat="59.4503849" lon="17.8032477">
        <ele>22.6</ele>
        <time>2013-11-13T19:36:37Z</time>
      </trkpt>
      <trkpt lat="59.4502593" lon="17.8033776">
        <ele>22.4</ele>
        <time>2013-11-13T19:36:45Z</time>
      </trkpt>
      <trkpt lat="59.4501552" lon="17.803367">
        <ele>22.2</ele>
        <time>2013-11-13T19:36:51Z</time>
      </trkpt>
      <trkpt lat="59.4501513" lon="17.8033521">
        <ele>22.2</ele>
        <time>2013-11-13T19:36:52Z</time>
      </trkpt>
      <trkpt lat="59.4501117" lon="17.8033068">
        <ele>22</ele>
        <time>2013-11-13T19:36:55Z</time>
      </trkpt>
      <trkpt lat="59.4501021" lon="17.8032805">
        <ele>22</ele>
        <time>2013-11-13T19:36:56Z</time>
      </trkpt>
      <trkpt lat="59.4500632" lon="17.8031936">
        <ele>21.6</ele>
        <time>2013-11-13T19:37:00Z</time>
      </trkpt>
      <trkpt lat="59.4500038" lon="17.8030475">
        <ele>21</ele>
        <time>2013-11-13T19:37:06Z</time>
      </trkpt>
      <trkpt lat="59.4499715" lon="17.8029921">
        <ele>20.6</ele>
        <time>2013-11-13T19:37:08Z</time>
      </trkpt>
      <trkpt lat="59.4499375" lon="17.8029151">
        <ele>20.4</ele>
        <time>2013-11-13T19:37:11Z</time>
      </trkpt>
      <trkpt lat="59.4498605" lon="17.8027724">
        <ele>20</ele>
        <time>2013-11-13T19:37:16Z</time>
      </trkpt>
      <trkpt lat="59.4498409" lon="17.8027296">
        <ele>20</ele>
        <time>2013-11-13T19:37:18Z</time>
      </trkpt>
      <trkpt lat="59.449798" lon="17.8026593">
        <ele>19.8</ele>
        <time>2013-11-13T19:37:21Z</time>
      </trkpt>
      <trkpt lat="59.4497298" lon="17.8025503">
        <ele>19.4</ele>
        <time>2013-11-13T19:37:27Z</time>
      </trkpt>
      <trkpt lat="59.449652" lon="17.8024135">
        <ele>19</ele>
        <time>2013-11-13T19:37:32Z</time>
      </trkpt>
      <trkpt lat="59.4496122" lon="17.8023278">
        <ele>18.8</ele>
        <time>2013-11-13T19:37:35Z</time>
      </trkpt>
      <trkpt lat="59.44958" lon="17.8022734">
        <ele>18.8</ele>
        <time>2013-11-13T19:37:37Z</time>
      </trkpt>
      <trkpt lat="59.4495563" lon="17.8022175">
        <ele>18.6</ele>
        <time>2013-11-13T19:37:39Z</time>
      </trkpt>
      <trkpt lat="59.4495155" lon="17.8021637">
        <ele>18.6</ele>
        <time>2013-11-13T19:37:42Z</time>
      </trkpt>
      <trkpt lat="59.4495055" lon="17.8021436">
        <ele>18.4</ele>
        <time>2013-11-13T19:37:43Z</time>
      </trkpt>
      <trkpt lat="59.449479" lon="17.8021031">
        <ele>18.4</ele>
        <time>2013-11-13T19:37:45Z</time>
      </trkpt>
      <trkpt lat="59.449457" lon="17.8020408">
        <ele>18.4</ele>
        <time>2013-11-13T19:37:48Z</time>
      </trkpt>
      <trkpt lat="59.4494304" lon="17.8019231">
        <ele>18.2</ele>
        <time>2013-11-13T19:37:53Z</time>
      </trkpt>
      <trkpt lat="59.4493638" lon="17.8017753">
        <ele>17.8</ele>
        <time>2013-11-13T19:37:58Z</time>
      </trkpt>
      <trkpt lat="59.4493075" lon="17.801673">
        <ele>17.6</ele>
        <time>2013-11-13T19:38:02Z</time>
      </trkpt>
      <trkpt lat="59.4492642" lon="17.8015988">
        <ele>17.4</ele>
        <time>2013-11-13T19:38:05Z</time>
      </trkpt>
      <trkpt lat="59.4492264" lon="17.8014793">
        <ele>17</ele>
        <time>2013-11-13T19:38:10Z</time>
      </trkpt>
      <trkpt lat="59.4491541" lon="17.8013269">
        <ele>16.6</ele>
        <time>2013-11-13T19:38:16Z</time>
      </trkpt>
      <trkpt lat="59.4491302" lon="17.8012866">
        <ele>16.4</ele>
        <time>2013-11-13T19:38:18Z</time>
      </trkpt>
      <trkpt lat="59.4490495" lon="17.8011984">
        <ele>16.2</ele>
        <time>2013-11-13T19:38:22Z</time>
      </trkpt>
      <trkpt lat="59.4490225" lon="17.8011762">
        <ele>16.4</ele>
        <time>2013-11-13T19:38:23Z</time>
      </trkpt>
      <trkpt lat="59.4489709" lon="17.8011607">
        <ele>17</ele>
        <time>2013-11-13T19:38:26Z</time>
      </trkpt>
      <trkpt lat="59.4489507" lon="17.8011445">
        <ele>17</ele>
        <time>2013-11-13T19:38:28Z</time>
      </trkpt>
      <trkpt lat="59.4487915" lon="17.8010979">
        <ele>17.6</ele>
        <time>2013-11-13T19:38:37Z</time>
      </trkpt>
      <trkpt lat="59.4487008" lon="17.801074">
        <ele>18</ele>
        <time>2013-11-13T19:38:42Z</time>
      </trkpt>
      <trkpt lat="59.4486553" lon="17.8010035">
        <ele>18.2</ele>
        <time>2013-11-13T19:38:46Z</time>
      </trkpt>
      <trkpt lat="59.4486306" lon="17.8009853">
        <ele>18</ele>
        <time>2013-11-13T19:38:47Z</time>
      </trkpt>
      <trkpt lat="59.4485265" lon="17.8009101">
        <ele>18.2</ele>
        <time>2013-11-13T19:38:53Z</time>
      </trkpt>
      <trkpt lat="59.4484043" lon="17.800827">
        <ele>18.4</ele>
        <time>2013-11-13T19:39:00Z</time>
      </trkpt>
      <trkpt lat="59.4482672" lon="17.8008581">
        <ele>19.2</ele>
        <time>2013-11-13T19:39:08Z</time>
      </trkpt>
      <trkpt lat="59.4481901" lon="17.8008286">
        <ele>19.4</ele>
        <time>2013-11-13T19:39:12Z</time>
      </trkpt>
      <trkpt lat="59.4481756" lon="17.8008262">
        <ele>19.4</ele>
        <time>2013-11-13T19:39:13Z</time>
      </trkpt>
      <trkpt lat="59.4481272" lon="17.8007908">
        <ele>19.6</ele>
        <time>2013-11-13T19:39:16Z</time>
      </trkpt>
      <trkpt lat="59.4480886" lon="17.8007701">
        <ele>19.4</ele>
        <time>2013-11-13T19:39:19Z</time>
      </trkpt>
      <trkpt lat="59.4480367" lon="17.8007387">
        <ele>19.4</ele>
        <time>2013-11-13T19:39:23Z</time>
      </trkpt>
      <trkpt lat="59.447937" lon="17.8007032">
        <ele>19.2</ele>
        <time>2013-11-13T19:39:29Z</time>
      </trkpt>
      <trkpt lat="59.4478153" lon="17.8006136">
        <ele>20.4</ele>
        <time>2013-11-13T19:39:35Z</time>
      </trkpt>
      <trkpt lat="59.447707" lon="17.8005415">
        <ele>21.4</ele>
        <time>2013-11-13T19:39:42Z</time>
      </trkpt>
      <trkpt lat="59.4476401" lon="17.800466">
        <ele>21.4</ele>
        <time>2013-11-13T19:39:47Z</time>
      </trkpt>
      <trkpt lat="59.4475816" lon="17.8004065">
        <ele>21.6</ele>
        <time>2013-11-13T19:39:51Z</time>
      </trkpt>
      <trkpt lat="59.4475044" lon="17.8003986">
        <ele>21.6</ele>
        <time>2013-11-13T19:39:57Z</time>
      </trkpt>
      <trkpt lat="59.447441" lon="17.8004132">
        <ele>22</ele>
        <time>2013-11-13T19:40:00Z</time>
      </trkpt>
      <trkpt lat="59.4473808" lon="17.8004796">
        <ele>22.6</ele>
        <time>2013-11-13T19:40:03Z</time>
      </trkpt>
      <trkpt lat="59.4473393" lon="17.8005524">
        <ele>23.2</ele>
        <time>2013-11-13T19:40:07Z</time>
      </trkpt>
      <trkpt lat="59.4473014" lon="17.8005934">
        <ele>23.6</ele>
        <time>2013-11-13T19:40:10Z</time>
      </trkpt>
      <trkpt lat="59.4472835" lon="17.8006083">
        <ele>23.6</ele>
        <time>2013-11-13T19:40:11Z</time>
      </trkpt>
      <trkpt lat="59.4472208" lon="17.8006309">
        <ele>24.2</ele>
        <time>2013-11-13T19:40:15Z</time>
      </trkpt>
      <trkpt lat="59.4471388" lon="17.8006637">
        <ele>24.6</ele>
        <time>2013-11-13T19:40:21Z</time>
      </trkpt>
      <trkpt lat="59.4470807" lon="17.8007297">
        <ele>25</ele>
        <time>2013-11-13T19:40:24Z</time>
      </trkpt>
      <trkpt lat="59.4470191" lon="17.8007991">
        <ele>25.6</ele>
        <time>2013-11-13T19:40:27Z</time>
      </trkpt>
      <trkpt lat="59.4469392" lon="17.8008255">
        <ele>25.8</ele>
        <time>2013-11-13T19:40:33Z</time>
      </trkpt>
      <trkpt lat="59.4469196" lon="17.8008245">
        <ele>25.8</ele>
        <time>2013-11-13T19:40:34Z</time>
      </trkpt>
      <trkpt lat="59.4468768" lon="17.8008394">
        <ele>26.4</ele>
        <time>2013-11-13T19:40:37Z</time>
      </trkpt>
      <trkpt lat="59.4467432" lon="17.8009732">
        <ele>27</ele>
        <time>2013-11-13T19:40:43Z</time>
      </trkpt>
      <trkpt lat="59.4467238" lon="17.8009755">
        <ele>27.2</ele>
        <time>2013-11-13T19:40:44Z</time>
      </trkpt>
      <trkpt lat="59.4466699" lon="17.8009964">
        <ele>27.2</ele>
        <time>2013-11-13T19:40:47Z</time>
      </trkpt>
      <trkpt lat="59.4466343" lon="17.801002">
        <ele>27.2</ele>
        <time>2013-11-13T19:40:49Z</time>
      </trkpt>
      <trkpt lat="59.4465337" lon="17.8009482">
        <ele>27.2</ele>
        <time>2013-11-13T19:40:55Z</time>
      </trkpt>
      <trkpt lat="59.4464171" lon="17.8008714">
        <ele>27.2</ele>
        <time>2013-11-13T19:41:01Z</time>
      </trkpt>
      <trkpt lat="59.4464098" lon="17.8008416">
        <ele>27.2</ele>
        <time>2013-11-13T19:41:02Z</time>
      </trkpt>
      <trkpt lat="59.4463705" lon="17.8007456">
        <ele>27.4</ele>
        <time>2013-11-13T19:41:05Z</time>
      </trkpt>
      <trkpt lat="59.4463001" lon="17.8006104">
        <ele>27.6</ele>
        <time>2013-11-13T19:41:11Z</time>
      </trkpt>
      <trkpt lat="59.4461783" lon="17.8003827">
        <ele>28</ele>
        <time>2013-11-13T19:41:19Z</time>
      </trkpt>
      <trkpt lat="59.4461141" lon="17.800295">
        <ele>28.2</ele>
        <time>2013-11-13T19:41:24Z</time>
      </trkpt>
      <trkpt lat="59.4460642" lon="17.800291">
        <ele>28.2</ele>
        <time>2013-11-13T19:41:27Z</time>
      </trkpt>
      <trkpt lat="59.4459564" lon="17.8003294">
        <ele>28.2</ele>
        <time>2013-11-13T19:41:33Z</time>
      </trkpt>
      <trkpt lat="59.4458899" lon="17.8003595">
        <ele>28.2</ele>
        <time>2013-11-13T19:41:37Z</time>
      </trkpt>
      <trkpt lat="59.4458548" lon="17.8003749">
        <ele>28</ele>
        <time>2013-11-13T19:41:39Z</time>
      </trkpt>
      <trkpt lat="59.4457969" lon="17.8004111">
        <ele>27.8</ele>
        <time>2013-11-13T19:41:44Z</time>
      </trkpt>
      <trkpt lat="59.4457121" lon="17.800463">
        <ele>27.4</ele>
        <time>2013-11-13T19:41:50Z</time>
      </trkpt>
      <trkpt lat="59.4456064" lon="17.8005404">
        <ele>27.2</ele>
        <time>2013-11-13T19:41:54Z</time>
      </trkpt>
      <trkpt lat="59.445489" lon="17.8006095">
        <ele>27</ele>
        <time>2013-11-13T19:41:59Z</time>
      </trkpt>
      <trkpt lat="59.4454578" lon="17.800624">
        <ele>26.8</ele>
        <time>2013-11-13T19:42:02Z</time>
      </trkpt>
      <trkpt lat="59.4454459" lon="17.8006253">
        <ele>26.6</ele>
        <time>2013-11-13T19:42:03Z</time>
      </trkpt>
      <trkpt lat="59.4453776" lon="17.8006629">
        <ele>26.4</ele>
        <time>2013-11-13T19:42:07Z</time>
      </trkpt>
      <trkpt lat="59.4453658" lon="17.8006703">
        <ele>26.4</ele>
        <time>2013-11-13T19:42:08Z</time>
      </trkpt>
      <trkpt lat="59.4453157" lon="17.8007079">
        <ele>26.2</ele>
        <time>2013-11-13T19:42:12Z</time>
      </trkpt>
      <trkpt lat="59.4452776" lon="17.8007163">
        <ele>26</ele>
        <time>2013-11-13T19:42:14Z</time>
      </trkpt>
      <trkpt lat="59.4452045" lon="17.8007415">
        <ele>25.8</ele>
        <time>2013-11-13T19:42:17Z</time>
      </trkpt>
      <trkpt lat="59.4451082" lon="17.8008022">
        <ele>25.4</ele>
        <time>2013-11-13T19:42:22Z</time>
      </trkpt>
      <trkpt lat="59.4450324" lon="17.8008171">
        <ele>25.2</ele>
        <time>2013-11-13T19:42:27Z</time>
      </trkpt>
      <trkpt lat="59.4450013" lon="17.8007851">
        <ele>25</ele>
        <time>2013-11-13T19:42:29Z</time>
      </trkpt>
      <trkpt lat="59.4449676" lon="17.8007329">
        <ele>24.8</ele>
        <time>2013-11-13T19:42:31Z</time>
      </trkpt>
      <trkpt lat="59.4449397" lon="17.8006478">
        <ele>24.8</ele>
        <time>2013-11-13T19:42:33Z</time>
      </trkpt>
      <trkpt lat="59.4448746" lon="17.8004581">
        <ele>24.8</ele>
        <time>2013-11-13T19:42:39Z</time>
      </trkpt>
      <trkpt lat="59.4448303" lon="17.8003304">
        <ele>24.8</ele>
        <time>2013-11-13T19:42:43Z</time>
      </trkpt>
      <trkpt lat="59.4448219" lon="17.8002968">
        <ele>24.6</ele>
        <time>2013-11-13T19:42:44Z</time>
      </trkpt>
      <trkpt lat="59.4447692" lon="17.8001602">
        <ele>24.4</ele>
        <time>2013-11-13T19:42:49Z</time>
      </trkpt>
      <trkpt lat="59.4447488" lon="17.8001039">
        <ele>24.4</ele>
        <time>2013-11-13T19:42:51Z</time>
      </trkpt>
      <trkpt lat="59.4447155" lon="17.8000028">
        <ele>24.4</ele>
        <time>2013-11-13T19:42:54Z</time>
      </trkpt>
      <trkpt lat="59.4446642" lon="17.7998753">
        <ele>24.4</ele>
        <time>2013-11-13T19:42:59Z</time>
      </trkpt>
      <trkpt lat="59.4446376" lon="17.7998319">
        <ele>24.4</ele>
        <time>2013-11-13T19:43:01Z</time>
      </trkpt>
      <trkpt lat="59.4445984" lon="17.7997576">
        <ele>24.4</ele>
        <time>2013-11-13T19:43:04Z</time>
      </trkpt>
      <trkpt lat="59.4445769" lon="17.7997347">
        <ele>24.4</ele>
        <time>2013-11-13T19:43:05Z</time>
      </trkpt>
      <trkpt lat="59.44453" lon="17.7996532">
        <ele>24.4</ele>
        <time>2013-11-13T19:43:08Z</time>
      </trkpt>
      <trkpt lat="59.4445265" lon="17.7996315">
        <ele>24.6</ele>
        <time>2013-11-13T19:43:09Z</time>
      </trkpt>
      <trkpt lat="59.4445034" lon="17.799425">
        <ele>24.8</ele>
        <time>2013-11-13T19:43:15Z</time>
      </trkpt>
      <trkpt lat="59.4445326" lon="17.7992009">
        <ele>25.6</ele>
        <time>2013-11-13T19:43:21Z</time>
      </trkpt>
      <trkpt lat="59.4445782" lon="17.7990603">
        <ele>25.4</ele>
        <time>2013-11-13T19:43:25Z</time>
      </trkpt>
      <trkpt lat="59.4446057" lon="17.7989609">
        <ele>26.4</ele>
        <time>2013-11-13T19:43:28Z</time>
      </trkpt>
      <trkpt lat="59.4446569" lon="17.7988499">
        <ele>26.8</ele>
        <time>2013-11-13T19:43:33Z</time>
      </trkpt>
      <trkpt lat="59.4447492" lon="17.7987343">
        <ele>27</ele>
        <time>2013-11-13T19:43:38Z</time>
      </trkpt>
      <trkpt lat="59.444768" lon="17.7987043">
        <ele>27</ele>
        <time>2013-11-13T19:43:39Z</time>
      </trkpt>
      <trkpt lat="59.4448107" lon="17.7985504">
        <ele>27.8</ele>
        <time>2013-11-13T19:43:44Z</time>
      </trkpt>
      <trkpt lat="59.4448044" lon="17.7984531">
        <ele>28</ele>
        <time>2013-11-13T19:43:47Z</time>
      </trkpt>
      <trkpt lat="59.4447947" lon="17.7984221">
        <ele>28.2</ele>
        <time>2013-11-13T19:43:48Z</time>
      </trkpt>
      <trkpt lat="59.444743" lon="17.7982713">
        <ele>28.4</ele>
        <time>2013-11-13T19:43:52Z</time>
      </trkpt>
      <trkpt lat="59.4447122" lon="17.7982171">
        <ele>28.6</ele>
        <time>2013-11-13T19:43:54Z</time>
      </trkpt>
      <trkpt lat="59.4446595" lon="17.7981536">
        <ele>28.8</ele>
        <time>2013-11-13T19:43:57Z</time>
      </trkpt>
      <trkpt lat="59.4446248" lon="17.7981107">
        <ele>29</ele>
        <time>2013-11-13T19:43:59Z</time>
      </trkpt>
      <trkpt lat="59.4445425" lon="17.7979804">
        <ele>28.8</ele>
        <time>2013-11-13T19:44:05Z</time>
      </trkpt>
      <trkpt lat="59.4445134" lon="17.7979286">
        <ele>28.8</ele>
        <time>2013-11-13T19:44:08Z</time>
      </trkpt>
      <trkpt lat="59.4445027" lon="17.7978863">
        <ele>28.6</ele>
        <time>2013-11-13T19:44:10Z</time>
      </trkpt>
      <trkpt lat="59.4444885" lon="17.7978323">
        <ele>28.6</ele>
        <time>2013-11-13T19:44:12Z</time>
      </trkpt>
      <trkpt lat="59.4444887" lon="17.7976877">
        <ele>28.6</ele>
        <time>2013-11-13T19:44:16Z</time>
      </trkpt>
      <trkpt lat="59.4445267" lon="17.7974722">
        <ele>28.6</ele>
        <time>2013-11-13T19:44:23Z</time>
      </trkpt>
      <trkpt lat="59.4445889" lon="17.7972581">
        <ele>28.4</ele>
        <time>2013-11-13T19:44:30Z</time>
      </trkpt>
      <trkpt lat="59.444609" lon="17.7970874">
        <ele>28.4</ele>
        <time>2013-11-13T19:44:35Z</time>
      </trkpt>
      <trkpt lat="59.4446192" lon="17.7970478">
        <ele>28.4</ele>
        <time>2013-11-13T19:44:36Z</time>
      </trkpt>
      <trkpt lat="59.4446451" lon="17.7969048">
        <ele>28.2</ele>
        <time>2013-11-13T19:44:40Z</time>
      </trkpt>
      <trkpt lat="59.4446406" lon="17.7966851">
        <ele>28</ele>
        <time>2013-11-13T19:44:46Z</time>
      </trkpt>
      <trkpt lat="59.4446013" lon="17.7964284">
        <ele>27.8</ele>
        <time>2013-11-13T19:44:52Z</time>
      </trkpt>
      <trkpt lat="59.4445078" lon="17.796339">
        <ele>28</ele>
        <time>2013-11-13T19:44:56Z</time>
      </trkpt>
      <trkpt lat="59.4444691" lon="17.7963523">
        <ele>28.2</ele>
        <time>2013-11-13T19:44:58Z</time>
      </trkpt>
      <trkpt lat="59.4444331" lon="17.7963807">
        <ele>28.4</ele>
        <time>2013-11-13T19:45:01Z</time>
      </trkpt>
      <trkpt lat="59.44441" lon="17.796402">
        <ele>28.6</ele>
        <time>2013-11-13T19:45:03Z</time>
      </trkpt>
      <trkpt lat="59.4443789" lon="17.7964556">
        <ele>29.2</ele>
        <time>2013-11-13T19:45:06Z</time>
      </trkpt>
      <trkpt lat="59.4443414" lon="17.7966136">
        <ele>29.8</ele>
        <time>2013-11-13T19:45:12Z</time>
      </trkpt>
      <trkpt lat="59.4443398" lon="17.7967766">
        <ele>30.2</ele>
        <time>2013-11-13T19:45:17Z</time>
      </trkpt>
      <trkpt lat="59.4443159" lon="17.7969566">
        <ele>31</ele>
        <time>2013-11-13T19:45:22Z</time>
      </trkpt>
      <trkpt lat="59.4443102" lon="17.7969916">
        <ele>31</ele>
        <time>2013-11-13T19:45:23Z</time>
      </trkpt>
      <trkpt lat="59.4442828" lon="17.7971388">
        <ele>31.4</ele>
        <time>2013-11-13T19:45:28Z</time>
      </trkpt>
      <trkpt lat="59.4442324" lon="17.7973645">
        <ele>31.4</ele>
        <time>2013-11-13T19:45:35Z</time>
      </trkpt>
      <trkpt lat="59.4442162" lon="17.7974749">
        <ele>31.4</ele>
        <time>2013-11-13T19:45:39Z</time>
      </trkpt>
      <trkpt lat="59.4442056" lon="17.7975164">
        <ele>31.4</ele>
        <time>2013-11-13T19:45:41Z</time>
      </trkpt>
      <trkpt lat="59.4441716" lon="17.7975756">
        <ele>31.4</ele>
        <time>2013-11-13T19:45:43Z</time>
      </trkpt>
      <trkpt lat="59.4441405" lon="17.7976133">
        <ele>31.4</ele>
        <time>2013-11-13T19:45:45Z</time>
      </trkpt>
      <trkpt lat="59.4440536" lon="17.7977538">
        <ele>31.2</ele>
        <time>2013-11-13T19:45:50Z</time>
      </trkpt>
      <trkpt lat="59.444039" lon="17.797774">
        <ele>31.2</ele>
        <time>2013-11-13T19:45:51Z</time>
      </trkpt>
      <trkpt lat="59.4440256" lon="17.7977834">
        <ele>31.2</ele>
        <time>2013-11-13T19:45:52Z</time>
      </trkpt>
      <trkpt lat="59.4439453" lon="17.7978107">
        <ele>31</ele>
        <time>2013-11-13T19:45:56Z</time>
      </trkpt>
      <trkpt lat="59.4438754" lon="17.7977578">
        <ele>30.8</ele>
        <time>2013-11-13T19:46:00Z</time>
      </trkpt>
      <trkpt lat="59.4438222" lon="17.7976656">
        <ele>30.8</ele>
        <time>2013-11-13T19:46:03Z</time>
      </trkpt>
      <trkpt lat="59.4438024" lon="17.7976082">
        <ele>30.8</ele>
        <time>2013-11-13T19:46:05Z</time>
      </trkpt>
      <trkpt lat="59.4437978" lon="17.7975412">
        <ele>30.8</ele>
        <time>2013-11-13T19:46:07Z</time>
      </trkpt>
      <trkpt lat="59.443795" lon="17.7974328">
        <ele>30.6</ele>
        <time>2013-11-13T19:46:10Z</time>
      </trkpt>
      <trkpt lat="59.4438113" lon="17.7971862">
        <ele>30.2</ele>
        <time>2013-11-13T19:46:17Z</time>
      </trkpt>
      <trkpt lat="59.4438257" lon="17.7970213">
        <ele>29.8</ele>
        <time>2013-11-13T19:46:22Z</time>
      </trkpt>
      <trkpt lat="59.4438465" lon="17.7967671">
        <ele>29.2</ele>
        <time>2013-11-13T19:46:29Z</time>
      </trkpt>
      <trkpt lat="59.4438778" lon="17.7965456">
        <ele>28.4</ele>
        <time>2013-11-13T19:46:36Z</time>
      </trkpt>
      <trkpt lat="59.4438959" lon="17.7963313">
        <ele>27.6</ele>
        <time>2013-11-13T19:46:42Z</time>
      </trkpt>
      <trkpt lat="59.443945" lon="17.7961002">
        <ele>26.6</ele>
        <time>2013-11-13T19:46:49Z</time>
      </trkpt>
      <trkpt lat="59.4439982" lon="17.7958978">
        <ele>25.8</ele>
        <time>2013-11-13T19:46:55Z</time>
      </trkpt>
      <trkpt lat="59.4440397" lon="17.7957523">
        <ele>25</ele>
        <time>2013-11-13T19:47:00Z</time>
      </trkpt>
      <trkpt lat="59.4440603" lon="17.7956594">
        <ele>24.6</ele>
        <time>2013-11-13T19:47:03Z</time>
      </trkpt>
      <trkpt lat="59.4440897" lon="17.795558">
        <ele>24</ele>
        <time>2013-11-13T19:47:06Z</time>
      </trkpt>
      <trkpt lat="59.4441187" lon="17.7954929">
        <ele>23.4</ele>
        <time>2013-11-13T19:47:09Z</time>
      </trkpt>
      <trkpt lat="59.4441445" lon="17.795437">
        <ele>23</ele>
        <time>2013-11-13T19:47:11Z</time>
      </trkpt>
      <trkpt lat="59.4441907" lon="17.7952538">
        <ele>21.4</ele>
        <time>2013-11-13T19:47:18Z</time>
      </trkpt>
      <trkpt lat="59.4441867" lon="17.7950268">
        <ele>20.4</ele>
        <time>2013-11-13T19:47:23Z</time>
      </trkpt>
      <trkpt lat="59.4441941" lon="17.7947708">
        <ele>19.4</ele>
        <time>2013-11-13T19:47:29Z</time>
      </trkpt>
      <trkpt lat="59.4442576" lon="17.7946312">
        <ele>18.4</ele>
        <time>2013-11-13T19:47:34Z</time>
      </trkpt>
      <trkpt lat="59.4443255" lon="17.7945548">
        <ele>17.4</ele>
        <time>2013-11-13T19:47:39Z</time>
      </trkpt>
      <trkpt lat="59.4444268" lon="17.7944966">
        <ele>16.4</ele>
        <time>2013-11-13T19:47:44Z</time>
      </trkpt>
      <trkpt lat="59.4444938" lon="17.7943833">
        <ele>15.4</ele>
        <time>2013-11-13T19:47:49Z</time>
      </trkpt>
      <trkpt lat="59.4445452" lon="17.7941627">
        <ele>14.6</ele>
        <time>2013-11-13T19:47:54Z</time>
      </trkpt>
      <trkpt lat="59.4445937" lon="17.7940628">
        <ele>13.8</ele>
        <time>2013-11-13T19:47:58Z</time>
      </trkpt>
      <trkpt lat="59.4446061" lon="17.7939958">
        <ele>13.6</ele>
        <time>2013-11-13T19:48:00Z</time>
      </trkpt>
      <trkpt lat="59.4446569" lon="17.7938081">
        <ele>12.4</ele>
        <time>2013-11-13T19:48:06Z</time>
      </trkpt>
      <trkpt lat="59.4446624" lon="17.7936889">
        <ele>12.2</ele>
        <time>2013-11-13T19:48:09Z</time>
      </trkpt>
      <trkpt lat="59.444654" lon="17.7936443">
        <ele>12</ele>
        <time>2013-11-13T19:48:10Z</time>
      </trkpt>
      <trkpt lat="59.4446217" lon="17.7934999">
        <ele>11.6</ele>
        <time>2013-11-13T19:48:14Z</time>
      </trkpt>
      <trkpt lat="59.4446112" lon="17.7934662">
        <ele>11.4</ele>
        <time>2013-11-13T19:48:15Z</time>
      </trkpt>
      <trkpt lat="59.4445275" lon="17.7932645">
        <ele>11</ele>
        <time>2013-11-13T19:48:21Z</time>
      </trkpt>
      <trkpt lat="59.4445015" lon="17.7930284">
        <ele>10.6</ele>
        <time>2013-11-13T19:48:27Z</time>
      </trkpt>
      <trkpt lat="59.4445361" lon="17.792834">
        <ele>10.2</ele>
        <time>2013-11-13T19:48:33Z</time>
      </trkpt>
      <trkpt lat="59.4446324" lon="17.7926875">
        <ele>9.8</ele>
        <time>2013-11-13T19:48:40Z</time>
      </trkpt>
      <trkpt lat="59.4447408" lon="17.7926054">
        <ele>9.2</ele>
        <time>2013-11-13T19:48:47Z</time>
      </trkpt>
      <trkpt lat="59.4448175" lon="17.7925847">
        <ele>8.6</ele>
        <time>2013-11-13T19:48:52Z</time>
      </trkpt>
      <trkpt lat="59.4449177" lon="17.792582">
        <ele>8.4</ele>
        <time>2013-11-13T19:48:57Z</time>
      </trkpt>
      <trkpt lat="59.4450047" lon="17.7925714">
        <ele>8.4</ele>
        <time>2013-11-13T19:49:02Z</time>
      </trkpt>
      <trkpt lat="59.4451004" lon="17.7925467">
        <ele>8</ele>
        <time>2013-11-13T19:49:08Z</time>
      </trkpt>
      <trkpt lat="59.4452332" lon="17.7925683">
        <ele>7.8</ele>
        <time>2013-11-13T19:49:15Z</time>
      </trkpt>
      <trkpt lat="59.445334" lon="17.7926127">
        <ele>7.6</ele>
        <time>2013-11-13T19:49:21Z</time>
      </trkpt>
      <trkpt lat="59.4454397" lon="17.7926538">
        <ele>7.2</ele>
        <time>2013-11-13T19:49:27Z</time>
      </trkpt>
      <trkpt lat="59.4455566" lon="17.7926826">
        <ele>7</ele>
        <time>2013-11-13T19:49:33Z</time>
      </trkpt>
      <trkpt lat="59.4456702" lon="17.792725">
        <ele>6.6</ele>
        <time>2013-11-13T19:49:39Z</time>
      </trkpt>
      <trkpt lat="59.44578" lon="17.7927034">
        <ele>6</ele>
        <time>2013-11-13T19:49:45Z</time>
      </trkpt>
      <trkpt lat="59.4458535" lon="17.792669">
        <ele>5.8</ele>
        <time>2013-11-13T19:49:50Z</time>
      </trkpt>
      <trkpt lat="59.4459661" lon="17.7926157">
        <ele>5.2</ele>
        <time>2013-11-13T19:49:57Z</time>
      </trkpt>
      <trkpt lat="59.4460716" lon="17.7925845">
        <ele>5</ele>
        <time>2013-11-13T19:50:02Z</time>
      </trkpt>
      <trkpt lat="59.4461522" lon="17.79258">
        <ele>4.8</ele>
        <time>2013-11-13T19:50:06Z</time>
      </trkpt>
      <trkpt lat="59.446164" lon="17.7925786">
        <ele>4.6</ele>
        <time>2013-11-13T19:50:07Z</time>
      </trkpt>
      <trkpt lat="59.4462173" lon="17.7925655">
        <ele>4.4</ele>
        <time>2013-11-13T19:50:10Z</time>
      </trkpt>
      <trkpt lat="59.4462404" lon="17.7925681">
        <ele>4.4</ele>
        <time>2013-11-13T19:50:11Z</time>
      </trkpt>
      <trkpt lat="59.4463415" lon="17.7925542">
        <ele>3.8</ele>
        <time>2013-11-13T19:50:17Z</time>
      </trkpt>
      <trkpt lat="59.4463954" lon="17.7925318">
        <ele>3.4</ele>
        <time>2013-11-13T19:50:20Z</time>
      </trkpt>
      <trkpt lat="59.4464277" lon="17.792536">
        <ele>3.2</ele>
        <time>2013-11-13T19:50:22Z</time>
      </trkpt>
      <trkpt lat="59.4465409" lon="17.7925255">
        <ele>2.6</ele>
        <time>2013-11-13T19:50:28Z</time>
      </trkpt>
      <trkpt lat="59.4466304" lon="17.7925607">
        <ele>2.4</ele>
        <time>2013-11-13T19:50:32Z</time>
      </trkpt>
      <trkpt lat="59.4466761" lon="17.792583">
        <ele>2.2</ele>
        <time>2013-11-13T19:50:34Z</time>
      </trkpt>
      <trkpt lat="59.4467808" lon="17.7926372">
        <ele>2.2</ele>
        <time>2013-11-13T19:50:39Z</time>
      </trkpt>
      <trkpt lat="59.4468438" lon="17.7926568">
        <ele>2</ele>
        <time>2013-11-13T19:50:43Z</time>
      </trkpt>
      <trkpt lat="59.446952" lon="17.7927222">
        <ele>2</ele>
        <time>2013-11-13T19:50:49Z</time>
      </trkpt>
      <trkpt lat="59.447054" lon="17.7927681">
        <ele>1.8</ele>
        <time>2013-11-13T19:50:55Z</time>
      </trkpt>
      <trkpt lat="59.4471404" lon="17.7927974">
        <ele>1.8</ele>
        <time>2013-11-13T19:51:00Z</time>
      </trkpt>
      <trkpt lat="59.4472175" lon="17.7928447">
        <ele>2.2</ele>
        <time>2013-11-13T19:51:04Z</time>
      </trkpt>
      <trkpt lat="59.447326" lon="17.7929505">
        <ele>3.2</ele>
        <time>2013-11-13T19:51:11Z</time>
      </trkpt>
      <trkpt lat="59.4473397" lon="17.7929669">
        <ele>3.4</ele>
        <time>2013-11-13T19:51:12Z</time>
      </trkpt>
      <trkpt lat="59.4474031" lon="17.7930131">
        <ele>4.4</ele>
        <time>2013-11-13T19:51:16Z</time>
      </trkpt>
      <trkpt lat="59.4475578" lon="17.7930648">
        <ele>6.4</ele>
        <time>2013-11-13T19:51:21Z</time>
      </trkpt>
      <trkpt lat="59.4477064" lon="17.793152">
        <ele>8</ele>
        <time>2013-11-13T19:51:26Z</time>
      </trkpt>
      <trkpt lat="59.4478303" lon="17.7931975">
        <ele>9.8</ele>
        <time>2013-11-13T19:51:31Z</time>
      </trkpt>
      <trkpt lat="59.4479142" lon="17.7932481">
        <ele>11.2</ele>
        <time>2013-11-13T19:51:36Z</time>
      </trkpt>
      <trkpt lat="59.4480007" lon="17.7932599">
        <ele>13</ele>
        <time>2013-11-13T19:51:42Z</time>
      </trkpt>
      <trkpt lat="59.4480345" lon="17.7932917">
        <ele>13.2</ele>
        <time>2013-11-13T19:51:44Z</time>
      </trkpt>
      <trkpt lat="59.4480609" lon="17.7933377">
        <ele>13.2</ele>
        <time>2013-11-13T19:51:46Z</time>
      </trkpt>
      <trkpt lat="59.4481504" lon="17.7934459">
        <ele>13.4</ele>
        <time>2013-11-13T19:51:52Z</time>
      </trkpt>
      <trkpt lat="59.4482095" lon="17.7935646">
        <ele>13.4</ele>
        <time>2013-11-13T19:51:56Z</time>
      </trkpt>
      <trkpt lat="59.4482602" lon="17.7936475">
        <ele>13.4</ele>
        <time>2013-11-13T19:52:01Z</time>
      </trkpt>
      <trkpt lat="59.4482889" lon="17.7936848">
        <ele>13.2</ele>
        <time>2013-11-13T19:52:03Z</time>
      </trkpt>
      <trkpt lat="59.4483654" lon="17.7937732">
        <ele>13.2</ele>
        <time>2013-11-13T19:52:09Z</time>
      </trkpt>
      <trkpt lat="59.4484536" lon="17.7938149">
        <ele>13</ele>
        <time>2013-11-13T19:52:14Z</time>
      </trkpt>
      <trkpt lat="59.4485617" lon="17.7938291">
        <ele>12.8</ele>
        <time>2013-11-13T19:52:20Z</time>
      </trkpt>
      <trkpt lat="59.448719" lon="17.7938619">
        <ele>12.4</ele>
        <time>2013-11-13T19:52:28Z</time>
      </trkpt>
      <trkpt lat="59.4487976" lon="17.7938514">
        <ele>12.2</ele>
        <time>2013-11-13T19:52:32Z</time>
      </trkpt>
      <trkpt lat="59.4488843" lon="17.7938257">
        <ele>12</ele>
        <time>2013-11-13T19:52:37Z</time>
      </trkpt>
      <trkpt lat="59.4490308" lon="17.7937329">
        <ele>12</ele>
        <time>2013-11-13T19:52:44Z</time>
      </trkpt>
      <trkpt lat="59.4490963" lon="17.7936508">
        <ele>12</ele>
        <time>2013-11-13T19:52:49Z</time>
      </trkpt>
      <trkpt lat="59.4492097" lon="17.793575">
        <ele>11.4</ele>
        <time>2013-11-13T19:52:56Z</time>
      </trkpt>
      <trkpt lat="59.449306" lon="17.7934964">
        <ele>11</ele>
        <time>2013-11-13T19:53:03Z</time>
      </trkpt>
      <trkpt lat="59.449316" lon="17.7935022">
        <ele>11</ele>
        <time>2013-11-13T19:53:04Z</time>
      </trkpt>
      <trkpt lat="59.449364" lon="17.7934987">
        <ele>10.6</ele>
        <time>2013-11-13T19:53:07Z</time>
      </trkpt>
      <trkpt lat="59.4494489" lon="17.7934838">
        <ele>10.4</ele>
        <time>2013-11-13T19:53:12Z</time>
      </trkpt>
      <trkpt lat="59.4494931" lon="17.7934325">
        <ele>10.2</ele>
        <time>2013-11-13T19:53:15Z</time>
      </trkpt>
      <trkpt lat="59.4495524" lon="17.7933931">
        <ele>10</ele>
        <time>2013-11-13T19:53:18Z</time>
      </trkpt>
      <trkpt lat="59.4495686" lon="17.7933829">
        <ele>10</ele>
        <time>2013-11-13T19:53:19Z</time>
      </trkpt>
      <trkpt lat="59.4496765" lon="17.7932991">
        <ele>9.8</ele>
        <time>2013-11-13T19:53:25Z</time>
      </trkpt>
      <trkpt lat="59.4497862" lon="17.7931999">
        <ele>9.6</ele>
        <time>2013-11-13T19:53:31Z</time>
      </trkpt>
      <trkpt lat="59.4498366" lon="17.7931551">
        <ele>9.2</ele>
        <time>2013-11-13T19:53:34Z</time>
      </trkpt>
      <trkpt lat="59.4498783" lon="17.7931291">
        <ele>9.2</ele>
        <time>2013-11-13T19:53:36Z</time>
      </trkpt>
      <trkpt lat="59.4500279" lon="17.7930399">
        <ele>8</ele>
        <time>2013-11-13T19:53:44Z</time>
      </trkpt>
      <trkpt lat="59.450123" lon="17.7930397">
        <ele>7</ele>
        <time>2013-11-13T19:53:50Z</time>
      </trkpt>
      <trkpt lat="59.4501457" lon="17.7930454">
        <ele>6.8</ele>
        <time>2013-11-13T19:53:51Z</time>
      </trkpt>
      <trkpt lat="59.4502162" lon="17.7930351">
        <ele>6.4</ele>
        <time>2013-11-13T19:53:55Z</time>
      </trkpt>
      <trkpt lat="59.4502629" lon="17.7930643">
        <ele>6</ele>
        <time>2013-11-13T19:53:58Z</time>
      </trkpt>
      <trkpt lat="59.4502976" lon="17.7931113">
        <ele>5.8</ele>
        <time>2013-11-13T19:54:01Z</time>
      </trkpt>
      <trkpt lat="59.4503767" lon="17.7932331">
        <ele>5.4</ele>
        <time>2013-11-13T19:54:06Z</time>
      </trkpt>
      <trkpt lat="59.4504514" lon="17.7933845">
        <ele>4.8</ele>
        <time>2013-11-13T19:54:13Z</time>
      </trkpt>
      <trkpt lat="59.450472" lon="17.7934228">
        <ele>4.8</ele>
        <time>2013-11-13T19:54:15Z</time>
      </trkpt>
      <trkpt lat="59.4505079" lon="17.7935255">
        <ele>4.6</ele>
        <time>2013-11-13T19:54:19Z</time>
      </trkpt>
      <trkpt lat="59.4505737" lon="17.793643">
        <ele>4.6</ele>
        <time>2013-11-13T19:54:24Z</time>
      </trkpt>
      <trkpt lat="59.4506559" lon="17.7937879">
        <ele>4.8</ele>
        <time>2013-11-13T19:54:29Z</time>
      </trkpt>
      <trkpt lat="59.450688" lon="17.7938712">
        <ele>5</ele>
        <time>2013-11-13T19:54:32Z</time>
      </trkpt>
      <trkpt lat="59.4506997" lon="17.7939319">
        <ele>5</ele>
        <time>2013-11-13T19:54:34Z</time>
      </trkpt>
      <trkpt lat="59.450755" lon="17.794116">
        <ele>5.4</ele>
        <time>2013-11-13T19:54:40Z</time>
      </trkpt>
      <trkpt lat="59.4507884" lon="17.7942402">
        <ele>5.4</ele>
        <time>2013-11-13T19:54:45Z</time>
      </trkpt>
      <trkpt lat="59.4507935" lon="17.7942668">
        <ele>5.4</ele>
        <time>2013-11-13T19:54:46Z</time>
      </trkpt>
      <trkpt lat="59.4508218" lon="17.7943907">
        <ele>5.4</ele>
        <time>2013-11-13T19:54:52Z</time>
      </trkpt>
      <trkpt lat="59.4508197" lon="17.7944247">
        <ele>5.4</ele>
        <time>2013-11-13T19:54:53Z</time>
      </trkpt>
      <trkpt lat="59.4508425" lon="17.7944727">
        <ele>5.6</ele>
        <time>2013-11-13T19:54:56Z</time>
      </trkpt>
      <trkpt lat="59.4509062" lon="17.7945098">
        <ele>6</ele>
        <time>2013-11-13T19:55:00Z</time>
      </trkpt>
      <trkpt lat="59.4509222" lon="17.7945176">
        <ele>6</ele>
        <time>2013-11-13T19:55:01Z</time>
      </trkpt>
      <trkpt lat="59.4510007" lon="17.794571">
        <ele>6.6</ele>
        <time>2013-11-13T19:55:07Z</time>
      </trkpt>
      <trkpt lat="59.4510946" lon="17.7946506">
        <ele>6.8</ele>
        <time>2013-11-13T19:55:12Z</time>
      </trkpt>
      <trkpt lat="59.4511109" lon="17.7946673">
        <ele>7</ele>
        <time>2013-11-13T19:55:13Z</time>
      </trkpt>
      <trkpt lat="59.451167" lon="17.7947073">
        <ele>7.4</ele>
        <time>2013-11-13T19:55:17Z</time>
      </trkpt>
      <trkpt lat="59.4511767" lon="17.7947048">
        <ele>7.6</ele>
        <time>2013-11-13T19:55:18Z</time>
      </trkpt>
      <trkpt lat="59.4512201" lon="17.7946799">
        <ele>7.6</ele>
        <time>2013-11-13T19:55:20Z</time>
      </trkpt>
      <trkpt lat="59.4512614" lon="17.7946476">
        <ele>8.2</ele>
        <time>2013-11-13T19:55:22Z</time>
      </trkpt>
      <trkpt lat="59.451308" lon="17.7946066">
        <ele>8.2</ele>
        <time>2013-11-13T19:55:25Z</time>
      </trkpt>
      <trkpt lat="59.4514118" lon="17.794545">
        <ele>8.2</ele>
        <time>2013-11-13T19:55:31Z</time>
      </trkpt>
      <trkpt lat="59.4515174" lon="17.7945716">
        <ele>8</ele>
        <time>2013-11-13T19:55:38Z</time>
      </trkpt>
      <trkpt lat="59.4515413" lon="17.794573">
        <ele>7.8</ele>
        <time>2013-11-13T19:55:39Z</time>
      </trkpt>
      <trkpt lat="59.4516419" lon="17.7946161">
        <ele>7.8</ele>
        <time>2013-11-13T19:55:44Z</time>
      </trkpt>
      <trkpt lat="59.451719" lon="17.7946613">
        <ele>8.8</ele>
        <time>2013-11-13T19:55:49Z</time>
      </trkpt>
      <trkpt lat="59.4517328" lon="17.7946554">
        <ele>8.8</ele>
        <time>2013-11-13T19:55:50Z</time>
      </trkpt>
      <trkpt lat="59.45181" lon="17.794559">
        <ele>9</ele>
        <time>2013-11-13T19:55:55Z</time>
      </trkpt>
      <trkpt lat="59.4518305" lon="17.7944959">
        <ele>9.2</ele>
        <time>2013-11-13T19:55:57Z</time>
      </trkpt>
      <trkpt lat="59.451872" lon="17.7944214">
        <ele>9</ele>
        <time>2013-11-13T19:56:00Z</time>
      </trkpt>
      <trkpt lat="59.4519615" lon="17.7944084">
        <ele>8.8</ele>
        <time>2013-11-13T19:56:05Z</time>
      </trkpt>
      <trkpt lat="59.4520424" lon="17.794413">
        <ele>8.2</ele>
        <time>2013-11-13T19:56:10Z</time>
      </trkpt>
      <trkpt lat="59.4521171" lon="17.7944581">
        <ele>7.8</ele>
        <time>2013-11-13T19:56:16Z</time>
      </trkpt>
      <trkpt lat="59.45219" lon="17.7944923">
        <ele>7.4</ele>
        <time>2013-11-13T19:56:21Z</time>
      </trkpt>
      <trkpt lat="59.4522457" lon="17.7945275">
        <ele>7.2</ele>
        <time>2013-11-13T19:56:25Z</time>
      </trkpt>
      <trkpt lat="59.4522802" lon="17.7945122">
        <ele>7.2</ele>
        <time>2013-11-13T19:56:27Z</time>
      </trkpt>
      <trkpt lat="59.4523316" lon="17.794453">
        <ele>7</ele>
        <time>2013-11-13T19:56:32Z</time>
      </trkpt>
      <trkpt lat="59.4523273" lon="17.7943863">
        <ele>7</ele>
        <time>2013-11-13T19:56:34Z</time>
      </trkpt>
      <trkpt lat="59.4523157" lon="17.794304">
        <ele>6.8</ele>
        <time>2013-11-13T19:56:37Z</time>
      </trkpt>
      <trkpt lat="59.4522939" lon="17.7941173">
        <ele>6.4</ele>
        <time>2013-11-13T19:56:43Z</time>
      </trkpt>
      <trkpt lat="59.4522836" lon="17.7939741">
        <ele>6</ele>
        <time>2013-11-13T19:56:48Z</time>
      </trkpt>
      <trkpt lat="59.4522955" lon="17.7937958">
        <ele>5.4</ele>
        <time>2013-11-13T19:56:54Z</time>
      </trkpt>
      <trkpt lat="59.4523101" lon="17.7936641">
        <ele>5</ele>
        <time>2013-11-13T19:56:58Z</time>
      </trkpt>
      <trkpt lat="59.4523318" lon="17.7936112">
        <ele>4.6</ele>
        <time>2013-11-13T19:57:00Z</time>
      </trkpt>
      <trkpt lat="59.4523392" lon="17.7935511">
        <ele>4.4</ele>
        <time>2013-11-13T19:57:02Z</time>
      </trkpt>
      <trkpt lat="59.4523512" lon="17.7935228">
        <ele>4.4</ele>
        <time>2013-11-13T19:57:03Z</time>
      </trkpt>
      <trkpt lat="59.4523668" lon="17.7934403">
        <ele>4.2</ele>
        <time>2013-11-13T19:57:05Z</time>
      </trkpt>
      <trkpt lat="59.4523882" lon="17.7933352">
        <ele>3.8</ele>
        <time>2013-11-13T19:57:08Z</time>
      </trkpt>
      <trkpt lat="59.4524136" lon="17.7931916">
        <ele>3.4</ele>
        <time>2013-11-13T19:57:12Z</time>
      </trkpt>
      <trkpt lat="59.4524904" lon="17.7929167">
        <ele>2.4</ele>
        <time>2013-11-13T19:57:21Z</time>
      </trkpt>
      <trkpt lat="59.4525469" lon="17.7927385">
        <ele>2</ele>
        <time>2013-11-13T19:57:26Z</time>
      </trkpt>
      <trkpt lat="59.4526245" lon="17.7925548">
        <ele>1.4</ele>
        <time>2013-11-13T19:57:33Z</time>
      </trkpt>
      <trkpt lat="59.4527001" lon="17.7924265">
        <ele>0.8</ele>
        <time>2013-11-13T19:57:39Z</time>
      </trkpt>
      <trkpt lat="59.4528171" lon="17.7922714">
        <ele>0.2</ele>
        <time>2013-11-13T19:57:47Z</time>
      </trkpt>
      <trkpt lat="59.4528995" lon="17.792153">
        <ele>0</ele>
        <time>2013-11-13T19:57:54Z</time>
      </trkpt>
      <trkpt lat="59.452965" lon="17.7920088">
        <ele>0</ele>
        <time>2013-11-13T19:58:00Z</time>
      </trkpt>
      <trkpt lat="59.4530731" lon="17.7918967">
        <ele>0</ele>
        <time>2013-11-13T19:58:07Z</time>
      </trkpt>
      <trkpt lat="59.4531512" lon="17.7917728">
        <ele>0</ele>
        <time>2013-11-13T19:58:13Z</time>
      </trkpt>
      <trkpt lat="59.4532096" lon="17.7916807">
        <ele>0</ele>
        <time>2013-11-13T19:58:18Z</time>
      </trkpt>
      <trkpt lat="59.4532509" lon="17.7916413">
        <ele>0</ele>
        <time>2013-11-13T19:58:21Z</time>
      </trkpt>
      <trkpt lat="59.4533045" lon="17.791626">
        <ele>0</ele>
        <time>2013-11-13T19:58:24Z</time>
      </trkpt>
      <trkpt lat="59.4533793" lon="17.791591">
        <ele>0</ele>
        <time>2013-11-13T19:58:29Z</time>
      </trkpt>
      <trkpt lat="59.4533903" lon="17.7915907">
        <ele>0</ele>
        <time>2013-11-13T19:58:30Z</time>
      </trkpt>
      <trkpt lat="59.4534662" lon="17.7916066">
        <ele>0</ele>
        <time>2013-11-13T19:58:35Z</time>
      </trkpt>
      <trkpt lat="59.4536087" lon="17.7915895">
        <ele>0</ele>
        <time>2013-11-13T19:58:43Z</time>
      </trkpt>
      <trkpt lat="59.4537433" lon="17.7916024">
        <ele>0</ele>
        <time>2013-11-13T19:58:51Z</time>
      </trkpt>
      <trkpt lat="59.4538281" lon="17.7916344">
        <ele>0</ele>
        <time>2013-11-13T19:58:57Z</time>
      </trkpt>
      <trkpt lat="59.4538527" lon="17.7916713">
        <ele>0</ele>
        <time>2013-11-13T19:58:59Z</time>
      </trkpt>
      <trkpt lat="59.4538839" lon="17.7918121">
        <ele>0</ele>
        <time>2013-11-13T19:59:04Z</time>
      </trkpt>
      <trkpt lat="59.4538898" lon="17.7919766">
        <ele>0</ele>
        <time>2013-11-13T19:59:09Z</time>
      </trkpt>
      <trkpt lat="59.4538885" lon="17.7921253">
        <ele>0</ele>
        <time>2013-11-13T19:59:13Z</time>
      </trkpt>
      <trkpt lat="59.4538894" lon="17.7922393">
        <ele>0</ele>
        <time>2013-11-13T19:59:16Z</time>
      </trkpt>
      <trkpt lat="59.4539004" lon="17.7923436">
        <ele>0</ele>
        <time>2013-11-13T19:59:19Z</time>
      </trkpt>
      <trkpt lat="59.4539383" lon="17.7925801">
        <ele>0</ele>
        <time>2013-11-13T19:59:26Z</time>
      </trkpt>
      <trkpt lat="59.4539992" lon="17.7928031">
        <ele>0</ele>
        <time>2013-11-13T19:59:33Z</time>
      </trkpt>
      <trkpt lat="59.4540725" lon="17.7929134">
        <ele>0</ele>
        <time>2013-11-13T19:59:39Z</time>
      </trkpt>
      <trkpt lat="59.4541621" lon="17.7930665">
        <ele>0</ele>
        <time>2013-11-13T19:59:47Z</time>
      </trkpt>
      <trkpt lat="59.454228" lon="17.793204">
        <ele>0</ele>
        <time>2013-11-13T19:59:53Z</time>
      </trkpt>
      <trkpt lat="59.4543084" lon="17.793381">
        <ele>0</ele>
        <time>2013-11-13T20:00:00Z</time>
      </trkpt>
      <trkpt lat="59.4543334" lon="17.7934214">
        <ele>0</ele>
        <time>2013-11-13T20:00:02Z</time>
      </trkpt>
      <trkpt lat="59.4543786" lon="17.7934788">
        <ele>0</ele>
        <time>2013-11-13T20:00:05Z</time>
      </trkpt>
      <trkpt lat="59.4544305" lon="17.7935506">
        <ele>0</ele>
        <time>2013-11-13T20:00:09Z</time>
      </trkpt>
      <trkpt lat="59.4544501" lon="17.7936055">
        <ele>0</ele>
        <time>2013-11-13T20:00:11Z</time>
      </trkpt>
      <trkpt lat="59.4544672" lon="17.793662">
        <ele>0</ele>
        <time>2013-11-13T20:00:13Z</time>
      </trkpt>
      <trkpt lat="59.454482" lon="17.7937645">
        <ele>0</ele>
        <time>2013-11-13T20:00:16Z</time>
      </trkpt>
      <trkpt lat="59.4545008" lon="17.7938404">
        <ele>0</ele>
        <time>2013-11-13T20:00:18Z</time>
      </trkpt>
      <trkpt lat="59.454553" lon="17.7939932">
        <ele>0</ele>
        <time>2013-11-13T20:00:23Z</time>
      </trkpt>
      <trkpt lat="59.4546218" lon="17.7941789">
        <ele>0</ele>
        <time>2013-11-13T20:00:29Z</time>
      </trkpt>
      <trkpt lat="59.4546961" lon="17.7943199">
        <ele>0</ele>
        <time>2013-11-13T20:00:35Z</time>
      </trkpt>
      <trkpt lat="59.4547883" lon="17.7944358">
        <ele>0</ele>
        <time>2013-11-13T20:00:41Z</time>
      </trkpt>
      <trkpt lat="59.454921" lon="17.7945535">
        <ele>0</ele>
        <time>2013-11-13T20:00:50Z</time>
      </trkpt>
      <trkpt lat="59.4550354" lon="17.7946236">
        <ele>0</ele>
        <time>2013-11-13T20:00:58Z</time>
      </trkpt>
      <trkpt lat="59.4551578" lon="17.7946929">
        <ele>0</ele>
        <time>2013-11-13T20:01:06Z</time>
      </trkpt>
      <trkpt lat="59.4552816" lon="17.7947817">
        <ele>0</ele>
        <time>2013-11-13T20:01:14Z</time>
      </trkpt>
      <trkpt lat="59.4554001" lon="17.7947978">
        <ele>0</ele>
        <time>2013-11-13T20:01:21Z</time>
      </trkpt>
      <trkpt lat="59.4554953" lon="17.7947772">
        <ele>0</ele>
        <time>2013-11-13T20:01:26Z</time>
      </trkpt>
      <trkpt lat="59.4555913" lon="17.7948354">
        <ele>0</ele>
        <time>2013-11-13T20:01:32Z</time>
      </trkpt>
      <trkpt lat="59.4557364" lon="17.7949197">
        <ele>0</ele>
        <time>2013-11-13T20:01:40Z</time>
      </trkpt>
      <trkpt lat="59.4558164" lon="17.7950199">
        <ele>0</ele>
        <time>2013-11-13T20:01:46Z</time>
      </trkpt>
      <trkpt lat="59.455935" lon="17.7951544">
        <ele>0</ele>
        <time>2013-11-13T20:01:53Z</time>
      </trkpt>
      <trkpt lat="59.4560828" lon="17.7953042">
        <ele>0</ele>
        <time>2013-11-13T20:02:01Z</time>
      </trkpt>
      <trkpt lat="59.4561674" lon="17.7954279">
        <ele>0</ele>
        <time>2013-11-13T20:02:07Z</time>
      </trkpt>
      <trkpt lat="59.4562926" lon="17.7955634">
        <ele>0</ele>
        <time>2013-11-13T20:02:14Z</time>
      </trkpt>
      <trkpt lat="59.4564412" lon="17.7956932">
        <ele>0</ele>
        <time>2013-11-13T20:02:23Z</time>
      </trkpt>
      <trkpt lat="59.4565223" lon="17.7957753">
        <ele>0</ele>
        <time>2013-11-13T20:02:29Z</time>
      </trkpt>
      <trkpt lat="59.4566069" lon="17.795851">
        <ele>0</ele>
        <time>2013-11-13T20:02:35Z</time>
      </trkpt>
      <trkpt lat="59.4567006" lon="17.7959867">
        <ele>0</ele>
        <time>2013-11-13T20:02:42Z</time>
      </trkpt>
      <trkpt lat="59.456829" lon="17.7961531">
        <ele>0</ele>
        <time>2013-11-13T20:02:50Z</time>
      </trkpt>
      <trkpt lat="59.4569395" lon="17.7962606">
        <ele>0</ele>
        <time>2013-11-13T20:02:56Z</time>
      </trkpt>
      <trkpt lat="59.4570234" lon="17.7963086">
        <ele>0</ele>
        <time>2013-11-13T20:03:00Z</time>
      </trkpt>
      <trkpt lat="59.4571341" lon="17.7962707">
        <ele>0</ele>
        <time>2013-11-13T20:03:06Z</time>
      </trkpt>
      <trkpt lat="59.4572273" lon="17.7962442">
        <ele>0</ele>
        <time>2013-11-13T20:03:12Z</time>
      </trkpt>
      <trkpt lat="59.457346" lon="17.796269">
        <ele>0</ele>
        <time>2013-11-13T20:03:20Z</time>
      </trkpt>
      <trkpt lat="59.4574512" lon="17.7963478">
        <ele>0</ele>
        <time>2013-11-13T20:03:27Z</time>
      </trkpt>
      <trkpt lat="59.4575694" lon="17.7964169">
        <ele>0</ele>
        <time>2013-11-13T20:03:34Z</time>
      </trkpt>
      <trkpt lat="59.4576475" lon="17.7965048">
        <ele>0</ele>
        <time>2013-11-13T20:03:40Z</time>
      </trkpt>
      <trkpt lat="59.4577192" lon="17.796662">
        <ele>0</ele>
        <time>2013-11-13T20:03:47Z</time>
      </trkpt>
      <trkpt lat="59.4577256" lon="17.796945">
        <ele>0</ele>
        <time>2013-11-13T20:03:55Z</time>
      </trkpt>
      <trkpt lat="59.4576807" lon="17.7971981">
        <ele>0</ele>
        <time>2013-11-13T20:04:03Z</time>
      </trkpt>
      <trkpt lat="59.4576471" lon="17.7973894">
        <ele>0</ele>
        <time>2013-11-13T20:04:09Z</time>
      </trkpt>
      <trkpt lat="59.4576014" lon="17.7976664">
        <ele>0</ele>
        <time>2013-11-13T20:04:18Z</time>
      </trkpt>
      <trkpt lat="59.4575554" lon="17.7978866">
        <ele>0</ele>
        <time>2013-11-13T20:04:25Z</time>
      </trkpt>
      <trkpt lat="59.4575014" lon="17.798154">
        <ele>0</ele>
        <time>2013-11-13T20:04:33Z</time>
      </trkpt>
      <trkpt lat="59.4574527" lon="17.7983372">
        <ele>0</ele>
        <time>2013-11-13T20:04:39Z</time>
      </trkpt>
      <trkpt lat="59.4574219" lon="17.7984535">
        <ele>0</ele>
        <time>2013-11-13T20:04:43Z</time>
      </trkpt>
      <trkpt lat="59.4574111" lon="17.7985129">
        <ele>0</ele>
        <time>2013-11-13T20:04:45Z</time>
      </trkpt>
      <trkpt lat="59.4573813" lon="17.7987201">
        <ele>0</ele>
        <time>2013-11-13T20:04:52Z</time>
      </trkpt>
      <trkpt lat="59.4573221" lon="17.79891">
        <ele>0</ele>
        <time>2013-11-13T20:04:58Z</time>
      </trkpt>
      <trkpt lat="59.4572734" lon="17.7991217">
        <ele>0</ele>
        <time>2013-11-13T20:05:05Z</time>
      </trkpt>
      <trkpt lat="59.4572434" lon="17.799292">
        <ele>0</ele>
        <time>2013-11-13T20:05:11Z</time>
      </trkpt>
      <trkpt lat="59.4572054" lon="17.7994544">
        <ele>0.8</ele>
        <time>2013-11-13T20:05:16Z</time>
      </trkpt>
      <trkpt lat="59.4571623" lon="17.7996895">
        <ele>1.4</ele>
        <time>2013-11-13T20:05:23Z</time>
      </trkpt>
      <trkpt lat="59.457112" lon="17.799928">
        <ele>2.4</ele>
        <time>2013-11-13T20:05:30Z</time>
      </trkpt>
      <trkpt lat="59.4571151" lon="17.7999582">
        <ele>2.6</ele>
        <time>2013-11-13T20:05:31Z</time>
      </trkpt>
      <trkpt lat="59.4571073" lon="17.8000602">
        <ele>2.8</ele>
        <time>2013-11-13T20:05:34Z</time>
      </trkpt>
      <trkpt lat="59.4571098" lon="17.800123">
        <ele>3.2</ele>
        <time>2013-11-13T20:05:36Z</time>
      </trkpt>
      <trkpt lat="59.457121" lon="17.8002576">
        <ele>3.6</ele>
        <time>2013-11-13T20:05:40Z</time>
      </trkpt>
      <trkpt lat="59.4571801" lon="17.8004971">
        <ele>4.2</ele>
        <time>2013-11-13T20:05:48Z</time>
      </trkpt>
      <trkpt lat="59.4572276" lon="17.8006292">
        <ele>4.2</ele>
        <time>2013-11-13T20:05:53Z</time>
      </trkpt>
      <trkpt lat="59.4572405" lon="17.8007416">
        <ele>4.4</ele>
        <time>2013-11-13T20:05:57Z</time>
      </trkpt>
      <trkpt lat="59.4572161" lon="17.8007837">
        <ele>4.6</ele>
        <time>2013-11-13T20:05:59Z</time>
      </trkpt>
      <trkpt lat="59.4571912" lon="17.8008536">
        <ele>4.8</ele>
        <time>2013-11-13T20:06:02Z</time>
      </trkpt>
      <trkpt lat="59.4571892" lon="17.8008874">
        <ele>5</ele>
        <time>2013-11-13T20:06:03Z</time>
      </trkpt>
      <trkpt lat="59.4572055" lon="17.8009934">
        <ele>5.8</ele>
        <time>2013-11-13T20:06:07Z</time>
      </trkpt>
      <trkpt lat="59.4572146" lon="17.8009889">
        <ele>6</ele>
        <time>2013-11-13T20:06:08Z</time>
      </trkpt>
      <trkpt lat="59.4572793" lon="17.8009716">
        <ele>6.4</ele>
        <time>2013-11-13T20:06:13Z</time>
      </trkpt>
      <trkpt lat="59.4573394" lon="17.8009535">
        <ele>6.4</ele>
        <time>2013-11-13T20:06:18Z</time>
      </trkpt>
      <trkpt lat="59.4573523" lon="17.8009473">
        <ele>6.8</ele>
        <time>2013-11-13T20:06:27Z</time>
      </trkpt>
      <trkpt lat="59.4573666" lon="17.800937">
        <ele>6.8</ele>
        <time>2013-11-13T20:06:28Z</time>
      </trkpt>
      <trkpt lat="59.457405" lon="17.8009391">
        <ele>7.2</ele>
        <time>2013-11-13T20:06:31Z</time>
      </trkpt>
      <trkpt lat="59.4574216" lon="17.8009375">
        <ele>7.2</ele>
        <time>2013-11-13T20:06:32Z</time>
      </trkpt>
      <trkpt lat="59.457516" lon="17.8009466">
        <ele>7</ele>
        <time>2013-11-13T20:06:38Z</time>
      </trkpt>
      <trkpt lat="59.4576333" lon="17.8009293">
        <ele>6.6</ele>
        <time>2013-11-13T20:06:45Z</time>
      </trkpt>
      <trkpt lat="59.4577408" lon="17.8008908">
        <ele>6</ele>
        <time>2013-11-13T20:06:52Z</time>
      </trkpt>
      <trkpt lat="59.4578447" lon="17.8008374">
        <ele>6</ele>
        <time>2013-11-13T20:06:58Z</time>
      </trkpt>
      <trkpt lat="59.4579569" lon="17.8007955">
        <ele>5.6</ele>
        <time>2013-11-13T20:07:05Z</time>
      </trkpt>
      <trkpt lat="59.4580884" lon="17.8007401">
        <ele>4.8</ele>
        <time>2013-11-13T20:07:13Z</time>
      </trkpt>
      <trkpt lat="59.4581834" lon="17.8007056">
        <ele>4.2</ele>
        <time>2013-11-13T20:07:19Z</time>
      </trkpt>
      <trkpt lat="59.4583355" lon="17.8006855">
        <ele>4</ele>
        <time>2013-11-13T20:07:27Z</time>
      </trkpt>
      <trkpt lat="59.458466" lon="17.800638">
        <ele>3.8</ele>
        <time>2013-11-13T20:07:35Z</time>
      </trkpt>
      <trkpt lat="59.4585801" lon="17.8006258">
        <ele>3.6</ele>
        <time>2013-11-13T20:07:42Z</time>
      </trkpt>
      <trkpt lat="59.458664" lon="17.8006004">
        <ele>3.4</ele>
        <time>2013-11-13T20:07:47Z</time>
      </trkpt>
      <trkpt lat="59.4587663" lon="17.8006053">
        <ele>3</ele>
        <time>2013-11-13T20:07:53Z</time>
      </trkpt>
      <trkpt lat="59.4589032" lon="17.8006225">
        <ele>2.4</ele>
        <time>2013-11-13T20:08:01Z</time>
      </trkpt>
      <trkpt lat="59.4589982" lon="17.8006242">
        <ele>1.8</ele>
        <time>2013-11-13T20:08:07Z</time>
      </trkpt>
      <trkpt lat="59.4591143" lon="17.8006407">
        <ele>0.8</ele>
        <time>2013-11-13T20:08:14Z</time>
      </trkpt>
      <trkpt lat="59.4592231" lon="17.800638">
        <ele>0</ele>
        <time>2013-11-13T20:08:20Z</time>
      </trkpt>
      <trkpt lat="59.4593207" lon="17.8006247">
        <ele>0</ele>
        <time>2013-11-13T20:08:25Z</time>
      </trkpt>
      <trkpt lat="59.4594222" lon="17.8006204">
        <ele>0</ele>
        <time>2013-11-13T20:08:31Z</time>
      </trkpt>
      <trkpt lat="59.4594953" lon="17.8006094">
        <ele>0</ele>
        <time>2013-11-13T20:08:36Z</time>
      </trkpt>
      <trkpt lat="59.4595637" lon="17.8005746">
        <ele>0</ele>
        <time>2013-11-13T20:08:40Z</time>
      </trkpt>
      <trkpt lat="59.4595967" lon="17.8005437">
        <ele>0</ele>
        <time>2013-11-13T20:08:42Z</time>
      </trkpt>
      <trkpt lat="59.4597111" lon="17.8004664">
        <ele>0</ele>
        <time>2013-11-13T20:08:49Z</time>
      </trkpt>
      <trkpt lat="59.4597958" lon="17.8003174">
        <ele>0</ele>
        <time>2013-11-13T20:08:55Z</time>
      </trkpt>
      <trkpt lat="59.4598933" lon="17.800182">
        <ele>0</ele>
        <time>2013-11-13T20:09:02Z</time>
      </trkpt>
      <trkpt lat="59.4599507" lon="17.8001214">
        <ele>0</ele>
        <time>2013-11-13T20:09:06Z</time>
      </trkpt>
      <trkpt lat="59.4599849" lon="17.8000849">
        <ele>0</ele>
        <time>2013-11-13T20:09:08Z</time>
      </trkpt>
      <trkpt lat="59.4600863" lon="17.799978">
        <ele>0</ele>
        <time>2013-11-13T20:09:15Z</time>
      </trkpt>
      <trkpt lat="59.4601728" lon="17.79989">
        <ele>0</ele>
        <time>2013-11-13T20:09:21Z</time>
      </trkpt>
      <trkpt lat="59.4602878" lon="17.7997921">
        <ele>0</ele>
        <time>2013-11-13T20:09:28Z</time>
      </trkpt>
      <trkpt lat="59.4603793" lon="17.7997088">
        <ele>0</ele>
        <time>2013-11-13T20:09:33Z</time>
      </trkpt>
      <trkpt lat="59.4604621" lon="17.7996496">
        <ele>0</ele>
        <time>2013-11-13T20:09:38Z</time>
      </trkpt>
      <trkpt lat="59.4604842" lon="17.7996292">
        <ele>0</ele>
        <time>2013-11-13T20:09:39Z</time>
      </trkpt>
      <trkpt lat="59.4605772" lon="17.7995721">
        <ele>0</ele>
        <time>2013-11-13T20:09:44Z</time>
      </trkpt>
      <trkpt lat="59.4606982" lon="17.7994983">
        <ele>0</ele>
        <time>2013-11-13T20:09:50Z</time>
      </trkpt>
      <trkpt lat="59.4607691" lon="17.799477">
        <ele>0</ele>
        <time>2013-11-13T20:09:54Z</time>
      </trkpt>
      <trkpt lat="59.460783" lon="17.7994767">
        <ele>0</ele>
        <time>2013-11-13T20:09:55Z</time>
      </trkpt>
      <trkpt lat="59.4608305" lon="17.7994649">
        <ele>0</ele>
        <time>2013-11-13T20:09:58Z</time>
      </trkpt>
      <trkpt lat="59.4609108" lon="17.7994566">
        <ele>0</ele>
        <time>2013-11-13T20:10:03Z</time>
      </trkpt>
      <trkpt lat="59.4610162" lon="17.7994397">
        <ele>0</ele>
        <time>2013-11-13T20:10:09Z</time>
      </trkpt>
      <trkpt lat="59.4611233" lon="17.7994589">
        <ele>0</ele>
        <time>2013-11-13T20:10:15Z</time>
      </trkpt>
      <trkpt lat="59.461201" lon="17.799426">
        <ele>0</ele>
        <time>2013-11-13T20:10:21Z</time>
      </trkpt>
      <trkpt lat="59.4612915" lon="17.7994255">
        <ele>0</ele>
        <time>2013-11-13T20:10:27Z</time>
      </trkpt>
      <trkpt lat="59.4613836" lon="17.7994">
        <ele>0</ele>
        <time>2013-11-13T20:10:32Z</time>
      </trkpt>
      <trkpt lat="59.4614015" lon="17.7993953">
        <ele>0</ele>
        <time>2013-11-13T20:10:33Z</time>
      </trkpt>
      <trkpt lat="59.4615167" lon="17.7993871">
        <ele>0</ele>
        <time>2013-11-13T20:10:39Z</time>
      </trkpt>
      <trkpt lat="59.4616406" lon="17.7993497">
        <ele>0</ele>
        <time>2013-11-13T20:10:46Z</time>
      </trkpt>
      <trkpt lat="59.4618006" lon="17.799345">
        <ele>0</ele>
        <time>2013-11-13T20:10:53Z</time>
      </trkpt>
      <trkpt lat="59.461942" lon="17.7993835">
        <ele>0</ele>
        <time>2013-11-13T20:11:00Z</time>
      </trkpt>
      <trkpt lat="59.4620725" lon="17.7994137">
        <ele>0</ele>
        <time>2013-11-13T20:11:07Z</time>
      </trkpt>
      <trkpt lat="59.4621928" lon="17.7994483">
        <ele>0</ele>
        <time>2013-11-13T20:11:13Z</time>
      </trkpt>
      <trkpt lat="59.4623107" lon="17.7994664">
        <ele>0</ele>
        <time>2013-11-13T20:11:20Z</time>
      </trkpt>
      <trkpt lat="59.4624466" lon="17.7995051">
        <ele>0</ele>
        <time>2013-11-13T20:11:27Z</time>
      </trkpt>
      <trkpt lat="59.462548" lon="17.799551">
        <ele>0</ele>
        <time>2013-11-13T20:11:34Z</time>
      </trkpt>
      <trkpt lat="59.4625934" lon="17.7995768">
        <ele>0</ele>
        <time>2013-11-13T20:11:37Z</time>
      </trkpt>
      <trkpt lat="59.4626228" lon="17.7995902">
        <ele>0</ele>
        <time>2013-11-13T20:11:39Z</time>
      </trkpt>
      <trkpt lat="59.4626988" lon="17.799647">
        <ele>0</ele>
        <time>2013-11-13T20:11:45Z</time>
      </trkpt>
      <trkpt lat="59.4627082" lon="17.7996541">
        <ele>0</ele>
        <time>2013-11-13T20:11:46Z</time>
      </trkpt>
      <trkpt lat="59.4627577" lon="17.7997154">
        <ele>0</ele>
        <time>2013-11-13T20:11:50Z</time>
      </trkpt>
      <trkpt lat="59.462813" lon="17.7997865">
        <ele>0</ele>
        <time>2013-11-13T20:11:55Z</time>
      </trkpt>
      <trkpt lat="59.4629064" lon="17.7998361">
        <ele>0</ele>
        <time>2013-11-13T20:12:00Z</time>
      </trkpt>
      <trkpt lat="59.4629814" lon="17.7998836">
        <ele>0</ele>
        <time>2013-11-13T20:12:05Z</time>
      </trkpt>
      <trkpt lat="59.4630883" lon="17.7999337">
        <ele>0</ele>
        <time>2013-11-13T20:12:10Z</time>
      </trkpt>
      <trkpt lat="59.4631105" lon="17.7999312">
        <ele>0</ele>
        <time>2013-11-13T20:12:11Z</time>
      </trkpt>
      <trkpt lat="59.4631535" lon="17.7999572">
        <ele>0</ele>
        <time>2013-11-13T20:12:14Z</time>
      </trkpt>
      <trkpt lat="59.4632018" lon="17.799984">
        <ele>0</ele>
        <time>2013-11-13T20:12:17Z</time>
      </trkpt>
      <trkpt lat="59.4632775" lon="17.7999982">
        <ele>0</ele>
        <time>2013-11-13T20:12:21Z</time>
      </trkpt>
      <trkpt lat="59.4632934" lon="17.8000125">
        <ele>0</ele>
        <time>2013-11-13T20:12:22Z</time>
      </trkpt>
      <trkpt lat="59.463378" lon="17.800035">
        <ele>0</ele>
        <time>2013-11-13T20:12:26Z</time>
      </trkpt>
      <trkpt lat="59.4634129" lon="17.8000561">
        <ele>0</ele>
        <time>2013-11-13T20:12:28Z</time>
      </trkpt>
      <trkpt lat="59.4635266" lon="17.8001115">
        <ele>0</ele>
        <time>2013-11-13T20:12:35Z</time>
      </trkpt>
      <trkpt lat="59.4636421" lon="17.8001535">
        <ele>0</ele>
        <time>2013-11-13T20:12:42Z</time>
      </trkpt>
      <trkpt lat="59.4637903" lon="17.8001771">
        <ele>0</ele>
        <time>2013-11-13T20:12:48Z</time>
      </trkpt>
      <trkpt lat="59.4639036" lon="17.800222">
        <ele>0</ele>
        <time>2013-11-13T20:12:54Z</time>
      </trkpt>
      <trkpt lat="59.4640051" lon="17.8002776">
        <ele>0</ele>
        <time>2013-11-13T20:13:01Z</time>
      </trkpt>
      <trkpt lat="59.4640457" lon="17.8003016">
        <ele>0</ele>
        <time>2013-11-13T20:13:04Z</time>
      </trkpt>
      <trkpt lat="59.4640932" lon="17.8003676">
        <ele>0</ele>
        <time>2013-11-13T20:13:07Z</time>
      </trkpt>
      <trkpt lat="59.4641689" lon="17.8004842">
        <ele>0</ele>
        <time>2013-11-13T20:13:13Z</time>
      </trkpt>
      <trkpt lat="59.4642251" lon="17.8005313">
        <ele>0</ele>
        <time>2013-11-13T20:13:17Z</time>
      </trkpt>
      <trkpt lat="59.464328" lon="17.8005639">
        <ele>0</ele>
        <time>2013-11-13T20:13:23Z</time>
      </trkpt>
      <trkpt lat="59.4644199" lon="17.8006167">
        <ele>0</ele>
        <time>2013-11-13T20:13:29Z</time>
      </trkpt>
      <trkpt lat="59.464521" lon="17.8006794">
        <ele>0</ele>
        <time>2013-11-13T20:13:36Z</time>
      </trkpt>
      <trkpt lat="59.464621" lon="17.8007696">
        <ele>0</ele>
        <time>2013-11-13T20:13:42Z</time>
      </trkpt>
      <trkpt lat="59.4647464" lon="17.8008492">
        <ele>0</ele>
        <time>2013-11-13T20:13:49Z</time>
      </trkpt>
      <trkpt lat="59.4648977" lon="17.800917">
        <ele>0</ele>
        <time>2013-11-13T20:13:57Z</time>
      </trkpt>
      <trkpt lat="59.4649976" lon="17.8009405">
        <ele>0</ele>
        <time>2013-11-13T20:14:03Z</time>
      </trkpt>
      <trkpt lat="59.4651794" lon="17.8009224">
        <ele>0</ele>
        <time>2013-11-13T20:14:12Z</time>
      </trkpt>
      <trkpt lat="59.4652312" lon="17.8009406">
        <ele>0</ele>
        <time>2013-11-13T20:14:15Z</time>
      </trkpt>
      <trkpt lat="59.4652996" lon="17.8009812">
        <ele>0</ele>
        <time>2013-11-13T20:14:19Z</time>
      </trkpt>
      <trkpt lat="59.4653846" lon="17.8010867">
        <ele>0</ele>
        <time>2013-11-13T20:14:24Z</time>
      </trkpt>
      <trkpt lat="59.4653996" lon="17.8011175">
        <ele>0</ele>
        <time>2013-11-13T20:14:25Z</time>
      </trkpt>
      <trkpt lat="59.4654292" lon="17.8013184">
        <ele>0</ele>
        <time>2013-11-13T20:14:31Z</time>
      </trkpt>
      <trkpt lat="59.4654493" lon="17.8014716">
        <ele>0</ele>
        <time>2013-11-13T20:14:34Z</time>
      </trkpt>
      <trkpt lat="59.4654333" lon="17.8015209">
        <ele>0</ele>
        <time>2013-11-13T20:14:35Z</time>
      </trkpt>
      <trkpt lat="59.4654286" lon="17.8016755">
        <ele>0</ele>
        <time>2013-11-13T20:14:39Z</time>
      </trkpt>
      <trkpt lat="59.4654717" lon="17.8017723">
        <ele>0</ele>
        <time>2013-11-13T20:14:43Z</time>
      </trkpt>
      <trkpt lat="59.4654856" lon="17.801781">
        <ele>0</ele>
        <time>2013-11-13T20:14:44Z</time>
      </trkpt>
      <trkpt lat="59.4655994" lon="17.8018292">
        <ele>0</ele>
        <time>2013-11-13T20:14:51Z</time>
      </trkpt>
      <trkpt lat="59.4656895" lon="17.80193">
        <ele>0</ele>
        <time>2013-11-13T20:14:57Z</time>
      </trkpt>
      <trkpt lat="59.465817" lon="17.8021731">
        <ele>0</ele>
        <time>2013-11-13T20:15:06Z</time>
      </trkpt>
      <trkpt lat="59.4659395" lon="17.8023679">
        <ele>0</ele>
        <time>2013-11-13T20:15:14Z</time>
      </trkpt>
      <trkpt lat="59.4660254" lon="17.8025438">
        <ele>0</ele>
        <time>2013-11-13T20:15:21Z</time>
      </trkpt>
      <trkpt lat="59.4661054" lon="17.8026909">
        <ele>0</ele>
        <time>2013-11-13T20:15:27Z</time>
      </trkpt>
      <trkpt lat="59.4661203" lon="17.8027068">
        <ele>0</ele>
        <time>2013-11-13T20:15:28Z</time>
      </trkpt>
      <trkpt lat="59.4661617" lon="17.802791">
        <ele>0</ele>
        <time>2013-11-13T20:15:32Z</time>
      </trkpt>
      <trkpt lat="59.4661937" lon="17.8029676">
        <ele>0</ele>
        <time>2013-11-13T20:15:38Z</time>
      </trkpt>
      <trkpt lat="59.4662584" lon="17.8031425">
        <ele>0</ele>
        <time>2013-11-13T20:15:45Z</time>
      </trkpt>
      <trkpt lat="59.4663298" lon="17.8032435">
        <ele>0</ele>
        <time>2013-11-13T20:15:51Z</time>
      </trkpt>
      <trkpt lat="59.4663827" lon="17.8033635">
        <ele>0</ele>
        <time>2013-11-13T20:15:56Z</time>
      </trkpt>
      <trkpt lat="59.4663766" lon="17.8034888">
        <ele>0</ele>
        <time>2013-11-13T20:16:00Z</time>
      </trkpt>
      <trkpt lat="59.4663548" lon="17.8035461">
        <ele>0</ele>
        <time>2013-11-13T20:16:02Z</time>
      </trkpt>
      <trkpt lat="59.466284" lon="17.8036786">
        <ele>0.4</ele>
        <time>2013-11-13T20:16:08Z</time>
      </trkpt>
      <trkpt lat="59.4662054" lon="17.8037905">
        <ele>1.6</ele>
        <time>2013-11-13T20:16:14Z</time>
      </trkpt>
      <trkpt lat="59.4661081" lon="17.8039024">
        <ele>3.2</ele>
        <time>2013-11-13T20:16:21Z</time>
      </trkpt>
      <trkpt lat="59.4659861" lon="17.804062">
        <ele>5.2</ele>
        <time>2013-11-13T20:16:30Z</time>
      </trkpt>
      <trkpt lat="59.4659464" lon="17.8041254">
        <ele>5.8</ele>
        <time>2013-11-13T20:16:33Z</time>
      </trkpt>
      <trkpt lat="59.4659164" lon="17.8041586">
        <ele>6.4</ele>
        <time>2013-11-13T20:16:35Z</time>
      </trkpt>
      <trkpt lat="59.4658317" lon="17.8042685">
        <ele>7.4</ele>
        <time>2013-11-13T20:16:41Z</time>
      </trkpt>
      <trkpt lat="59.465733" lon="17.8043942">
        <ele>8.6</ele>
        <time>2013-11-13T20:16:48Z</time>
      </trkpt>
      <trkpt lat="59.4656501" lon="17.8045176">
        <ele>9.6</ele>
        <time>2013-11-13T20:16:55Z</time>
      </trkpt>
      <trkpt lat="59.465566" lon="17.8046202">
        <ele>10.6</ele>
        <time>2013-11-13T20:17:01Z</time>
      </trkpt>
      <trkpt lat="59.4655164" lon="17.8046348">
        <ele>10.8</ele>
        <time>2013-11-13T20:17:05Z</time>
      </trkpt>
      <trkpt lat="59.4654977" lon="17.8046412">
        <ele>11</ele>
        <time>2013-11-13T20:17:06Z</time>
      </trkpt>
      <trkpt lat="59.4653646" lon="17.8046331">
        <ele>11.8</ele>
        <time>2013-11-13T20:17:14Z</time>
      </trkpt>
      <trkpt lat="59.4652396" lon="17.8046558">
        <ele>12.6</ele>
        <time>2013-11-13T20:17:21Z</time>
      </trkpt>
      <trkpt lat="59.4651243" lon="17.8046876">
        <ele>13</ele>
        <time>2013-11-13T20:17:28Z</time>
      </trkpt>
      <trkpt lat="59.4649958" lon="17.8047012">
        <ele>13.8</ele>
        <time>2013-11-13T20:17:36Z</time>
      </trkpt>
      <trkpt lat="59.4649539" lon="17.8047051">
        <ele>14</ele>
        <time>2013-11-13T20:17:39Z</time>
      </trkpt>
      <trkpt lat="59.4648636" lon="17.8047504">
        <ele>14.6</ele>
        <time>2013-11-13T20:17:45Z</time>
      </trkpt>
      <trkpt lat="59.4647637" lon="17.8048127">
        <ele>15.2</ele>
        <time>2013-11-13T20:17:52Z</time>
      </trkpt>
      <trkpt lat="59.4646449" lon="17.8048677">
        <ele>16</ele>
        <time>2013-11-13T20:18:00Z</time>
      </trkpt>
      <trkpt lat="59.4645642" lon="17.8049133">
        <ele>16.8</ele>
        <time>2013-11-13T20:18:06Z</time>
      </trkpt>
      <trkpt lat="59.4644474" lon="17.8049903">
        <ele>18.2</ele>
        <time>2013-11-13T20:18:14Z</time>
      </trkpt>
      <trkpt lat="59.4643457" lon="17.8050403">
        <ele>19.6</ele>
        <time>2013-11-13T20:18:20Z</time>
      </trkpt>
      <trkpt lat="59.4642404" lon="17.8051216">
        <ele>21.4</ele>
        <time>2013-11-13T20:18:28Z</time>
      </trkpt>
      <trkpt lat="59.4641622" lon="17.8052275">
        <ele>22.6</ele>
        <time>2013-11-13T20:18:34Z</time>
      </trkpt>
      <trkpt lat="59.4640761" lon="17.8053524">
        <ele>24</ele>
        <time>2013-11-13T20:18:41Z</time>
      </trkpt>
      <trkpt lat="59.4640044" lon="17.8055005">
        <ele>25</ele>
        <time>2013-11-13T20:18:47Z</time>
      </trkpt>
      <trkpt lat="59.464003" lon="17.8055192">
        <ele>25</ele>
        <time>2013-11-13T20:18:48Z</time>
      </trkpt>
      <trkpt lat="59.4639643" lon="17.8056052">
        <ele>25.6</ele>
        <time>2013-11-13T20:18:51Z</time>
      </trkpt>
      <trkpt lat="59.4638865" lon="17.8057161">
        <ele>26.2</ele>
        <time>2013-11-13T20:18:57Z</time>
      </trkpt>
      <trkpt lat="59.4637865" lon="17.8057637">
        <ele>27.4</ele>
        <time>2013-11-13T20:19:03Z</time>
      </trkpt>
      <trkpt lat="59.463704" lon="17.8057311">
        <ele>28</ele>
        <time>2013-11-13T20:19:08Z</time>
      </trkpt>
      <trkpt lat="59.4636694" lon="17.8057017">
        <ele>28.2</ele>
        <time>2013-11-13T20:19:10Z</time>
      </trkpt>
      <trkpt lat="59.4635755" lon="17.8056013">
        <ele>28.6</ele>
        <time>2013-11-13T20:19:17Z</time>
      </trkpt>
      <trkpt lat="59.4635626" lon="17.8055898">
        <ele>28.8</ele>
        <time>2013-11-13T20:19:18Z</time>
      </trkpt>
      <trkpt lat="59.4634598" lon="17.8055599">
        <ele>29.6</ele>
        <time>2013-11-13T20:19:24Z</time>
      </trkpt>
      <trkpt lat="59.4633789" lon="17.8055171">
        <ele>30.4</ele>
        <time>2013-11-13T20:19:30Z</time>
      </trkpt>
      <trkpt lat="59.4633448" lon="17.805511">
        <ele>30.6</ele>
        <time>2013-11-13T20:19:32Z</time>
      </trkpt>
      <trkpt lat="59.4632894" lon="17.8055212">
        <ele>31.2</ele>
        <time>2013-11-13T20:19:35Z</time>
      </trkpt>
      <trkpt lat="59.4632308" lon="17.8055353">
        <ele>31.6</ele>
        <time>2013-11-13T20:19:38Z</time>
      </trkpt>
      <trkpt lat="59.4631874" lon="17.8055392">
        <ele>31.8</ele>
        <time>2013-11-13T20:19:40Z</time>
      </trkpt>
      <trkpt lat="59.4630699" lon="17.8055373">
        <ele>32.2</ele>
        <time>2013-11-13T20:19:46Z</time>
      </trkpt>
      <trkpt lat="59.4629961" lon="17.8055367">
        <ele>32.6</ele>
        <time>2013-11-13T20:19:51Z</time>
      </trkpt>
      <trkpt lat="59.462983" lon="17.8055308">
        <ele>32.6</ele>
        <time>2013-11-13T20:19:52Z</time>
      </trkpt>
      <trkpt lat="59.4629453" lon="17.8055199">
        <ele>32.8</ele>
        <time>2013-11-13T20:19:54Z</time>
      </trkpt>
      <trkpt lat="59.4628932" lon="17.8054956">
        <ele>33</ele>
        <time>2013-11-13T20:19:57Z</time>
      </trkpt>
      <trkpt lat="59.4628805" lon="17.8054782">
        <ele>33</ele>
        <time>2013-11-13T20:19:58Z</time>
      </trkpt>
      <trkpt lat="59.462823" lon="17.8054476">
        <ele>33</ele>
        <time>2013-11-13T20:20:02Z</time>
      </trkpt>
      <trkpt lat="59.4628024" lon="17.805433">
        <ele>33</ele>
        <time>2013-11-13T20:20:05Z</time>
      </trkpt>
      <trkpt lat="59.4627876" lon="17.8054346">
        <ele>33</ele>
        <time>2013-11-13T20:20:06Z</time>
      </trkpt>
      <trkpt lat="59.4626883" lon="17.8054085">
        <ele>32.8</ele>
        <time>2013-11-13T20:20:13Z</time>
      </trkpt>
      <trkpt lat="59.4626093" lon="17.8054597">
        <ele>32.8</ele>
        <time>2013-11-13T20:20:18Z</time>
      </trkpt>
      <trkpt lat="59.4625736" lon="17.8054851">
        <ele>32.8</ele>
        <time>2013-11-13T20:20:20Z</time>
      </trkpt>
      <trkpt lat="59.4625252" lon="17.805522">
        <ele>32.8</ele>
        <time>2013-11-13T20:20:23Z</time>
      </trkpt>
      <trkpt lat="59.462449" lon="17.8055872">
        <ele>32.8</ele>
        <time>2013-11-13T20:20:27Z</time>
      </trkpt>
      <trkpt lat="59.4624125" lon="17.8056036">
        <ele>32.6</ele>
        <time>2013-11-13T20:20:32Z</time>
      </trkpt>
      <trkpt lat="59.4623325" lon="17.8056818">
        <ele>32.6</ele>
        <time>2013-11-13T20:20:37Z</time>
      </trkpt>
      <trkpt lat="59.4623085" lon="17.8057197">
        <ele>32.6</ele>
        <time>2013-11-13T20:20:39Z</time>
      </trkpt>
      <trkpt lat="59.4622693" lon="17.8057663">
        <ele>32.6</ele>
        <time>2013-11-13T20:20:42Z</time>
      </trkpt>
      <trkpt lat="59.4622038" lon="17.8058317">
        <ele>32.6</ele>
        <time>2013-11-13T20:20:46Z</time>
      </trkpt>
      <trkpt lat="59.4621691" lon="17.8058594">
        <ele>32.4</ele>
        <time>2013-11-13T20:20:48Z</time>
      </trkpt>
      <trkpt lat="59.462106" lon="17.8058775">
        <ele>32.4</ele>
        <time>2013-11-13T20:20:52Z</time>
      </trkpt>
      <trkpt lat="59.4620888" lon="17.8058943">
        <ele>32.6</ele>
        <time>2013-11-13T20:20:53Z</time>
      </trkpt>
      <trkpt lat="59.4619937" lon="17.8059492">
        <ele>32.8</ele>
        <time>2013-11-13T20:20:59Z</time>
      </trkpt>
      <trkpt lat="59.4619455" lon="17.8059152">
        <ele>32.6</ele>
        <time>2013-11-13T20:21:02Z</time>
      </trkpt>
      <trkpt lat="59.4618933" lon="17.8058625">
        <ele>32.6</ele>
        <time>2013-11-13T20:21:05Z</time>
      </trkpt>
      <trkpt lat="59.4618607" lon="17.8057194">
        <ele>32.6</ele>
        <time>2013-11-13T20:21:09Z</time>
      </trkpt>
      <trkpt lat="59.4618486" lon="17.8056455">
        <ele>32.4</ele>
        <time>2013-11-13T20:21:11Z</time>
      </trkpt>
      <trkpt lat="59.4618088" lon="17.8054519">
        <ele>32.4</ele>
        <time>2013-11-13T20:21:16Z</time>
      </trkpt>
      <trkpt lat="59.4617852" lon="17.8051732">
        <ele>32.2</ele>
        <time>2013-11-13T20:21:24Z</time>
      </trkpt>
      <trkpt lat="59.4617726" lon="17.804944">
        <ele>32</ele>
        <time>2013-11-13T20:21:31Z</time>
      </trkpt>
      <trkpt lat="59.4617721" lon="17.8046572">
        <ele>31.8</ele>
        <time>2013-11-13T20:21:39Z</time>
      </trkpt>
      <trkpt lat="59.4617418" lon="17.8044852">
        <ele>31.6</ele>
        <time>2013-11-13T20:21:44Z</time>
      </trkpt>
      <trkpt lat="59.4617045" lon="17.8042046">
        <ele>31.4</ele>
        <time>2013-11-13T20:21:52Z</time>
      </trkpt>
      <trkpt lat="59.4616673" lon="17.8039797">
        <ele>31</ele>
        <time>2013-11-13T20:21:59Z</time>
      </trkpt>
      <trkpt lat="59.4616364" lon="17.8037963">
        <ele>30.8</ele>
        <time>2013-11-13T20:22:04Z</time>
      </trkpt>
      <trkpt lat="59.4616381" lon="17.8036805">
        <ele>30.6</ele>
        <time>2013-11-13T20:22:08Z</time>
      </trkpt>
      <trkpt lat="59.4616386" lon="17.8036085">
        <ele>30.6</ele>
        <time>2013-11-13T20:22:10Z</time>
      </trkpt>
      <trkpt lat="59.461613" lon="17.8034194">
        <ele>30.2</ele>
        <time>2013-11-13T20:22:16Z</time>
      </trkpt>
      <trkpt lat="59.4615604" lon="17.8032596">
        <ele>29.8</ele>
        <time>2013-11-13T20:22:22Z</time>
      </trkpt>
      <trkpt lat="59.4614975" lon="17.803083">
        <ele>29.6</ele>
        <time>2013-11-13T20:22:29Z</time>
      </trkpt>
      <trkpt lat="59.4614809" lon="17.8029917">
        <ele>29.4</ele>
        <time>2013-11-13T20:22:33Z</time>
      </trkpt>
      <trkpt lat="59.4614357" lon="17.8028033">
        <ele>29</ele>
        <time>2013-11-13T20:22:39Z</time>
      </trkpt>
      <trkpt lat="59.4613778" lon="17.8025704">
        <ele>28.4</ele>
        <time>2013-11-13T20:22:46Z</time>
      </trkpt>
      <trkpt lat="59.4613726" lon="17.8025085">
        <ele>28.2</ele>
        <time>2013-11-13T20:22:48Z</time>
      </trkpt>
      <trkpt lat="59.4613643" lon="17.8024075">
        <ele>27.8</ele>
        <time>2013-11-13T20:22:51Z</time>
      </trkpt>
      <trkpt lat="59.4612939" lon="17.8023794">
        <ele>27.4</ele>
        <time>2013-11-13T20:22:56Z</time>
      </trkpt>
      <trkpt lat="59.4612534" lon="17.8024011">
        <ele>27.2</ele>
        <time>2013-11-13T20:22:59Z</time>
      </trkpt>
      <trkpt lat="59.4612193" lon="17.8024203">
        <ele>26.8</ele>
        <time>2013-11-13T20:23:02Z</time>
      </trkpt>
      <trkpt lat="59.461151" lon="17.8024531">
        <ele>26.4</ele>
        <time>2013-11-13T20:23:07Z</time>
      </trkpt>
      <trkpt lat="59.4611422" lon="17.8024608">
        <ele>26.4</ele>
        <time>2013-11-13T20:23:08Z</time>
      </trkpt>
      <trkpt lat="59.4610747" lon="17.8025097">
        <ele>26</ele>
        <time>2013-11-13T20:23:13Z</time>
      </trkpt>
      <trkpt lat="59.4609752" lon="17.8026105">
        <ele>25.8</ele>
        <time>2013-11-13T20:23:19Z</time>
      </trkpt>
      <trkpt lat="59.4608878" lon="17.8026727">
        <ele>25.4</ele>
        <time>2013-11-13T20:23:25Z</time>
      </trkpt>
      <trkpt lat="59.4607889" lon="17.8027149">
        <ele>25.2</ele>
        <time>2013-11-13T20:23:31Z</time>
      </trkpt>
      <trkpt lat="59.4607354" lon="17.8027859">
        <ele>24.8</ele>
        <time>2013-11-13T20:23:37Z</time>
      </trkpt>
      <trkpt lat="59.4607022" lon="17.8028842">
        <ele>24.4</ele>
        <time>2013-11-13T20:23:42Z</time>
      </trkpt>
      <trkpt lat="59.4606028" lon="17.8030303">
        <ele>24.2</ele>
        <time>2013-11-13T20:23:47Z</time>
      </trkpt>
      <trkpt lat="59.4605126" lon="17.8031414">
        <ele>24</ele>
        <time>2013-11-13T20:23:53Z</time>
      </trkpt>
      <trkpt lat="59.4604651" lon="17.8031788">
        <ele>24</ele>
        <time>2013-11-13T20:23:57Z</time>
      </trkpt>
      <trkpt lat="59.4604325" lon="17.8032037">
        <ele>24</ele>
        <time>2013-11-13T20:23:59Z</time>
      </trkpt>
      <trkpt lat="59.4603459" lon="17.803246">
        <ele>23.8</ele>
        <time>2013-11-13T20:24:05Z</time>
      </trkpt>
      <trkpt lat="59.4603157" lon="17.8032761">
        <ele>23.8</ele>
        <time>2013-11-13T20:24:08Z</time>
      </trkpt>
      <trkpt lat="59.4602417" lon="17.8033026">
        <ele>24</ele>
        <time>2013-11-13T20:24:12Z</time>
      </trkpt>
      <trkpt lat="59.4602158" lon="17.8033145">
        <ele>24</ele>
        <time>2013-11-13T20:24:14Z</time>
      </trkpt>
      <trkpt lat="59.4601698" lon="17.8033148">
        <ele>23.8</ele>
        <time>2013-11-13T20:24:17Z</time>
      </trkpt>
      <trkpt lat="59.4600427" lon="17.8033223">
        <ele>24</ele>
        <time>2013-11-13T20:24:23Z</time>
      </trkpt>
      <trkpt lat="59.4599271" lon="17.8033347">
        <ele>23.8</ele>
        <time>2013-11-13T20:24:27Z</time>
      </trkpt>
      <trkpt lat="59.4598828" lon="17.8033341">
        <ele>23.8</ele>
        <time>2013-11-13T20:24:29Z</time>
      </trkpt>
      <trkpt lat="59.4598055" lon="17.8033364">
        <ele>23.6</ele>
        <time>2013-11-13T20:24:33Z</time>
      </trkpt>
      <trkpt lat="59.459745" lon="17.8033823">
        <ele>23.4</ele>
        <time>2013-11-13T20:24:38Z</time>
      </trkpt>
      <trkpt lat="59.4597219" lon="17.803385">
        <ele>23.4</ele>
        <time>2013-11-13T20:24:40Z</time>
      </trkpt>
      <trkpt lat="59.4596829" lon="17.8034224">
        <ele>23.2</ele>
        <time>2013-11-13T20:24:43Z</time>
      </trkpt>
      <trkpt lat="59.4596025" lon="17.8035036">
        <ele>23</ele>
        <time>2013-11-13T20:24:48Z</time>
      </trkpt>
      <trkpt lat="59.4595086" lon="17.8035971">
        <ele>23.4</ele>
        <time>2013-11-13T20:24:55Z</time>
      </trkpt>
      <trkpt lat="59.4594327" lon="17.8037298">
        <ele>23.6</ele>
        <time>2013-11-13T20:25:01Z</time>
      </trkpt>
      <trkpt lat="59.4593532" lon="17.8038745">
        <ele>23.6</ele>
        <time>2013-11-13T20:25:07Z</time>
      </trkpt>
      <trkpt lat="59.4592115" lon="17.8040305">
        <ele>23.8</ele>
        <time>2013-11-13T20:25:15Z</time>
      </trkpt>
      <trkpt lat="59.4591419" lon="17.8041277">
        <ele>24</ele>
        <time>2013-11-13T20:25:20Z</time>
      </trkpt>
      <trkpt lat="59.4591302" lon="17.8041295">
        <ele>24.2</ele>
        <time>2013-11-13T20:25:21Z</time>
      </trkpt>
      <trkpt lat="59.4590667" lon="17.8041765">
        <ele>24.6</ele>
        <time>2013-11-13T20:25:25Z</time>
      </trkpt>
      <trkpt lat="59.4590588" lon="17.8041915">
        <ele>24.8</ele>
        <time>2013-11-13T20:25:26Z</time>
      </trkpt>
    </trkseg>
  </trk>
</gpx>